Observation data for Smyer on 06/29/2020      Previous  Date       Current Mesonet Observations  Soil Data  Daily Summary Page  Observations in Plain Language
KSM2 290500Z 19013KT 28/11 A2975 RMK A01 T02780105  RH  034%=      5-min Rain = 0
KSM2 290501Z 19011KT 28/11 A2975 RMK A01 T02790106  RH  034%=      5-min Rain = 0
KSM2 290502Z 19012KT 28/11 A2975 RMK A01 T02780106  RH  034%=      5-min Rain = 0
KSM2 290503Z 19011KT 28/11 A2975 RMK A01 T02770105  RH  034%=      5-min Rain = 0
KSM2 290504Z 19012KT 28/11 A2975 RMK A01 T02770105  RH  034%=      5-min Rain = 0
KSM2 290505Z 19011KT 28/10 A2975 RMK A01 T02770104  RH  034%=      5-min Rain = 0
KSM2 290506Z 19011KT 28/10 A2975 RMK A01 T02770103  RH  034%=      5-min Rain = 0
KSM2 290507Z 19012KT 28/10 A2975 RMK A01 T02770103  RH  034%=      5-min Rain = 0
KSM2 290508Z 19012KT 28/10 A2975 RMK A01 T02770102  RH  033%=      5-min Rain = 0
KSM2 290509Z 20011KT 28/10 A2975 RMK A01 T02770101  RH  033%=      5-min Rain = 0
KSM2 290510Z 19010KT 28/10 A2975 RMK A01 T02770101  RH  033%=      5-min Rain = 0
KSM2 290511Z 19011KT 28/10 A2975 RMK A01 T02770100  RH  033%=      5-min Rain = 0
KSM2 290512Z 19010KT 28/10 A2975 RMK A01 T02770100  RH  033%=      5-min Rain = 0
KSM2 290513Z 19011KT 28/10 A2975 RMK A01 T02760098  RH  033%=      5-min Rain = 0
KSM2 290514Z 18010KT 28/10 A2975 RMK A01 T02760098  RH  033%=      5-min Rain = 0
KSM2 290515Z 19009KT 28/10 A2975 RMK A01 T02750097  RH  033%=      5-min Rain = 0
KSM2 290516Z 18008KT 28/10 A2975 RMK A01 T02750097  RH  033%=      5-min Rain = 0
KSM2 290517Z 19010KT 28/10 A2975 RMK A01 T02750096  RH  033%=      5-min Rain = 0
KSM2 290518Z 19009KT 27/10 A2975 RMK A01 T02740095  RH  032%=      5-min Rain = 0
KSM2 290519Z 19009KT 27/10 A2975 RMK A01 T02740095  RH  032%=      5-min Rain = 0
KSM2 290520Z 19009KT 27/09 A2975 RMK A01 T02740094  RH  032%=      5-min Rain = 0
KSM2 290521Z 18007KT 27/09 A2975 RMK A01 T02740094  RH  032%=      5-min Rain = 0
KSM2 290522Z 18008KT 27/09 A2975 RMK A01 T02730094  RH  033%=      5-min Rain = 0
KSM2 290523Z 19008KT 27/09 A2975 RMK A01 T02720094  RH  033%=      5-min Rain = 0
KSM2 290524Z 18009KT 27/09 A2975 RMK A01 T02720094  RH  033%=      5-min Rain = 0
KSM2 290525Z 17011KT 27/09 A2975 RMK A01 T02720094  RH  032%=      5-min Rain = 0
KSM2 290526Z 17009KT 27/09 A2975 RMK A01 T02740094  RH  032%=      5-min Rain = 0
KSM2 290527Z 17009KT 27/09 A2975 RMK A01 T02740094  RH  032%=      5-min Rain = 0
KSM2 290528Z 17009KT 27/10 A2975 RMK A01 T02740095  RH  032%=      5-min Rain = 0
KSM2 290529Z 17009KT 27/09 A2975 RMK A01 T02740094  RH  032%=      5-min Rain = 0
KSM2 290530Z 16009KT 27/09 A2975 RMK A01 T02740094  RH  032%=      5-min Rain = 0
KSM2 290531Z 16009KT 27/09 A2975 RMK A01 T02730094  RH  032%=      5-min Rain = 0
KSM2 290532Z 17008KT 27/10 A2976 RMK A01 T02730095  RH  033%=      5-min Rain = 0
KSM2 290533Z 17010KT 27/09 A2976 RMK A01 T02730094  RH  032%=      5-min Rain = 0
KSM2 290534Z 17009KT 27/09 A2976 RMK A01 T02730094  RH  032%=      5-min Rain = 0
KSM2 290535Z 16008KT 27/09 A2976 RMK A01 T02740094  RH  032%=      5-min Rain = 0
KSM2 290536Z 16009KT 27/10 A2976 RMK A01 T02740095  RH  033%=      5-min Rain = 0
KSM2 290537Z 16008KT 27/10 A2976 RMK A01 T02730096  RH  033%=      5-min Rain = 0
KSM2 290538Z 16009KT 27/10 A2976 RMK A01 T02730096  RH  033%=      5-min Rain = 0
KSM2 290539Z 16008KT 27/10 A2976 RMK A01 T02720097  RH  033%=      5-min Rain = 0
KSM2 290540Z 16008KT 27/10 A2976 RMK A01 T02720098  RH  034%=      5-min Rain = 0
KSM2 290541Z 17009KT 27/10 A2976 RMK A01 T02710099  RH  034%=      5-min Rain = 0
KSM2 290542Z 16009KT 27/10 A2976 RMK A01 T02700100  RH  034%=      5-min Rain = 0
KSM2 290543Z 16010KT 27/10 A2976 RMK A01 T02700100  RH  035%=      5-min Rain = 0
KSM2 290544Z 16009KT 27/10 A2976 RMK A01 T02690101  RH  035%=      5-min Rain = 0
KSM2 290545Z 16009KT 27/10 A2976 RMK A01 T02690102  RH  035%=      5-min Rain = 0
KSM2 290546Z 17009KT 27/10 A2976 RMK A01 T02670102  RH  035%=      5-min Rain = 0
KSM2 290547Z 18010KT 27/10 A2976 RMK A01 T02670103  RH  036%=      5-min Rain = 0
KSM2 290548Z 18010KT 27/10 A2976 RMK A01 T02670103  RH  036%=      5-min Rain = 0
KSM2 290549Z 17011KT 27/10 A2976 RMK A01 T02670103  RH  036%=      5-min Rain = 0
KSM2 290550Z 18011KT 27/10 A2976 RMK A01 T02670104  RH  036%=      5-min Rain = 0
KSM2 290551Z 18011KT 27/10 A2976 RMK A01 T02670104  RH  036%=      5-min Rain = 0
KSM2 290552Z 18009KT 27/11 A2976 RMK A01 T02670105  RH  036%=      5-min Rain = 0
KSM2 290553Z 18010KT 27/11 A2976 RMK A01 T02660105  RH  036%=      5-min Rain = 0
KSM2 290554Z 18010KT 27/11 A2976 RMK A01 T02650105  RH  037%=      5-min Rain = 0
KSM2 290555Z 18009G14KT 26/11 A2976 RMK A01 T02640105  RH  037%=      5-min Rain = 0
KSM2 290556Z 19010KT 26/11 A2976 RMK A01 T02640105  RH  037%=      5-min Rain = 0
KSM2 290557Z 19009KT 26/11 A2976 RMK A01 T02630105  RH  037%=      5-min Rain = 0
KSM2 290558Z 19009KT 26/11 A2976 RMK A01 T02620106  RH  037%=      5-min Rain = 0
KSM2 290559Z 18009KT 26/11 A2976 RMK A01 T02610105  RH  038%=      5-min Rain = 0
KSM2 290600Z 19009KT 26/11 A2976 RMK A01 T02610105  RH  038%=      5-min Rain = 0
KSM2 290601Z 18009KT 26/11 A2976 RMK A01 T02610106  RH  038%=      5-min Rain = 0
KSM2 290602Z 18009KT 26/11 A2975 RMK A01 T02610105  RH  038%=      5-min Rain = 0
KSM2 290603Z 18009KT 26/11 A2975 RMK A01 T02610105  RH  038%=      5-min Rain = 0
KSM2 290604Z 19009KT 26/11 A2975 RMK A01 T02600106  RH  038%=      5-min Rain = 0
KSM2 290605Z 18010KT 26/11 A2975 RMK A01 T02600106  RH  038%=      5-min Rain = 0
KSM2 290606Z 19011KT 26/11 A2975 RMK A01 T02590105  RH  038%=      5-min Rain = 0
KSM2 290607Z 19011KT 26/11 A2975 RMK A01 T02590105  RH  038%=      5-min Rain = 0
KSM2 290608Z 19012KT 26/11 A2975 RMK A01 T02590105  RH  038%=      5-min Rain = 0
KSM2 290609Z 19010KT 26/10 A2975 RMK A01 T02590104  RH  038%=      5-min Rain = 0
KSM2 290610Z 19010KT 26/10 A2975 RMK A01 T02590104  RH  038%=      5-min Rain = 0
KSM2 290611Z 18010KT 26/10 A2976 RMK A01 T02580104  RH  038%=      5-min Rain = 0
KSM2 290612Z 19010KT 26/10 A2976 RMK A01 T02580104  RH  038%=      5-min Rain = 0
KSM2 290613Z 18010KT 26/10 A2976 RMK A01 T02570104  RH  038%=      5-min Rain = 0
KSM2 290614Z 19010KT 26/10 A2975 RMK A01 T02570104  RH  038%=      5-min Rain = 0
KSM2 290615Z 19009KT 26/10 A2975 RMK A01 T02570103  RH  038%=      5-min Rain = 0
KSM2 290616Z 19010KT 26/10 A2975 RMK A01 T02570103  RH  038%=      5-min Rain = 0
KSM2 290617Z 19011G16KT 26/10 A2975 RMK A01 T02570103  RH  038%=      5-min Rain = 0
KSM2 290618Z 19010KT 26/10 A2975 RMK A01 T02570102  RH  038%=      5-min Rain = 0
KSM2 290619Z 19012KT 26/10 A2975 RMK A01 T02570102  RH  038%=      5-min Rain = 0
KSM2 290620Z 19012KT 26/10 A2975 RMK A01 T02570102  RH  038%=      5-min Rain = 0
KSM2 290621Z 19011KT 26/10 A2975 RMK A01 T02580102  RH  037%=      5-min Rain = 0
KSM2 290622Z 18010G15KT 26/10 A2975 RMK A01 T02580102  RH  038%=      5-min Rain = 0
KSM2 290623Z 18011KT 26/10 A2975 RMK A01 T02570102  RH  038%=      5-min Rain = 0
KSM2 290624Z 18010KT 26/10 A2975 RMK A01 T02570102  RH  038%=      5-min Rain = 0
KSM2 290625Z 19011KT 26/10 A2975 RMK A01 T02570101  RH  037%=      5-min Rain = 0
KSM2 290626Z 19011KT 26/10 A2975 RMK A01 T02570101  RH  037%=      5-min Rain = 0
KSM2 290627Z 19011KT 26/10 A2975 RMK A01 T02570101  RH  038%=      5-min Rain = 0
KSM2 290628Z 19010G15KT 26/10 A2975 RMK A01 T02570101  RH  037%=      5-min Rain = 0
KSM2 290629Z 19011KT 26/10 A2975 RMK A01 T02560100  RH  037%=      5-min Rain = 0
KSM2 290630Z 19013KT 26/10 A2975 RMK A01 T02560099  RH  037%=      5-min Rain = 0
KSM2 290631Z 19012KT 26/10 A2975 RMK A01 T02570099  RH  037%=      5-min Rain = 0
KSM2 290632Z 19013KT 26/10 A2975 RMK A01 T02580099  RH  037%=      5-min Rain = 0
KSM2 290633Z 19014KT 26/10 A2975 RMK A01 T02580099  RH  037%=      5-min Rain = 0
KSM2 290634Z 19014KT 26/10 A2975 RMK A01 T02580099  RH  036%=      5-min Rain = 0
KSM2 290635Z 19013KT 26/10 A2975 RMK A01 T02600099  RH  036%=      5-min Rain = 0
KSM2 290636Z 19013KT 26/10 A2975 RMK A01 T02600099  RH  036%=      5-min Rain = 0
KSM2 290637Z 20013KT 26/10 A2975 RMK A01 T02600099  RH  036%=      5-min Rain = 0
KSM2 290638Z 20014KT 26/10 A2975 RMK A01 T02600100  RH  036%=      5-min Rain = 0
KSM2 290639Z 20014KT 26/10 A2975 RMK A01 T02610101  RH  036%=      5-min Rain = 0
KSM2 290640Z 19014KT 26/10 A2975 RMK A01 T02620102  RH  036%=      5-min Rain = 0
KSM2 290641Z 20015KT 26/10 A2975 RMK A01 T02620102  RH  037%=      5-min Rain = 0
KSM2 290642Z 19013KT 26/10 A2975 RMK A01 T02630103  RH  037%=      5-min Rain = 0
KSM2 290643Z 19015KT 26/10 A2975 RMK A01 T02630104  RH  037%=      5-min Rain = 0
KSM2 290644Z 19014KT 26/10 A2975 RMK A01 T02620104  RH  037%=      5-min Rain = 0
KSM2 290645Z 19015KT 26/11 A2975 RMK A01 T02620105  RH  037%=      5-min Rain = 0
KSM2 290646Z 19014KT 26/11 A2975 RMK A01 T02620106  RH  037%=      5-min Rain = 0
KSM2 290647Z 19015KT 26/11 A2975 RMK A01 T02620106  RH  038%=      5-min Rain = 0
KSM2 290648Z 19016KT 26/11 A2975 RMK A01 T02620107  RH  038%=      5-min Rain = 0
KSM2 290649Z 19015KT 26/11 A2975 RMK A01 T02630108  RH  038%=      5-min Rain = 0
KSM2 290650Z 19014KT 26/11 A2974 RMK A01 T02630108  RH  038%=      5-min Rain = 0
KSM2 290651Z 19015G20KT 26/11 A2974 RMK A01 T02630109  RH  038%=      5-min Rain = 0
KSM2 290652Z 19016KT 26/11 A2974 RMK A01 T02630109  RH  038%=      5-min Rain = 0
KSM2 290653Z 19016KT 26/11 A2974 RMK A01 T02630109  RH  038%=      5-min Rain = 0
KSM2 290654Z 19017KT 26/11 A2974 RMK A01 T02630109  RH  038%=      5-min Rain = 0
KSM2 290655Z 19015KT 26/11 A2974 RMK A01 T02630108  RH  038%=      5-min Rain = 0
KSM2 290656Z 20017KT 26/11 A2974 RMK A01 T02630108  RH  038%=      5-min Rain = 0
KSM2 290657Z 20017KT 26/11 A2974 RMK A01 T02630108  RH  038%=      5-min Rain = 0
KSM2 290658Z 20016KT 26/11 A2974 RMK A01 T02630108  RH  038%=      5-min Rain = 0
KSM2 290659Z 20015KT 26/11 A2974 RMK A01 T02620108  RH  038%=      5-min Rain = 0
KSM2 290700Z 20016KT 26/11 A2974 RMK A01 T02620107  RH  038%=      5-min Rain = 0
KSM2 290701Z 20015KT 26/11 A2975 RMK A01 T02620107  RH  038%=      5-min Rain = 0
KSM2 290702Z 20014KT 26/11 A2975 RMK A01 T02610107  RH  038%=      5-min Rain = 0
KSM2 290703Z 20017KT 26/11 A2974 RMK A01 T02600106  RH  038%=      5-min Rain = 0
KSM2 290704Z 19015KT 26/11 A2975 RMK A01 T02610105  RH  038%=      5-min Rain = 0
KSM2 290705Z 19016KT 26/11 A2974 RMK A01 T02610105  RH  038%=      5-min Rain = 0
KSM2 290706Z 19016KT 26/11 A2974 RMK A01 T02610105  RH  037%=      5-min Rain = 0
KSM2 290707Z 19015KT 26/10 A2974 RMK A01 T02600104  RH  037%=      5-min Rain = 0
KSM2 290708Z 19014KT 26/10 A2974 RMK A01 T02600104  RH  037%=      5-min Rain = 0
KSM2 290709Z 19014KT 26/10 A2974 RMK A01 T02590104  RH  038%=      5-min Rain = 0
KSM2 290710Z 19013KT 26/10 A2974 RMK A01 T02590104  RH  038%=      5-min Rain = 0
KSM2 290711Z 19013KT 26/10 A2974 RMK A01 T02580104  RH  038%=      5-min Rain = 0
KSM2 290712Z 19013KT 26/10 A2974 RMK A01 T02570104  RH  038%=      5-min Rain = 0
KSM2 290713Z 19013KT 26/10 A2974 RMK A01 T02570104  RH  038%=      5-min Rain = 0
KSM2 290714Z 20013KT 26/10 A2974 RMK A01 T02560103  RH  038%=      5-min Rain = 0
KSM2 290715Z 19012KT 26/10 A2974 RMK A01 T02560103  RH  038%=      5-min Rain = 0
KSM2 290716Z 19012KT 26/10 A2974 RMK A01 T02560103  RH  038%=      5-min Rain = 0
KSM2 290717Z 19012KT 26/10 A2974 RMK A01 T02560103  RH  038%=      5-min Rain = 0
KSM2 290718Z 19013KT 26/10 A2974 RMK A01 T02560103  RH  038%=      5-min Rain = 0
KSM2 290719Z 19013KT 26/10 A2974 RMK A01 T02560103  RH  038%=      5-min Rain = 0
KSM2 290720Z 19012KT 26/10 A2974 RMK A01 T02550103  RH  038%=      5-min Rain = 0
KSM2 290721Z 20012KT 26/10 A2974 RMK A01 T02550103  RH  038%=      5-min Rain = 0
KSM2 290722Z 20012KT 26/10 A2974 RMK A01 T02550103  RH  038%=      5-min Rain = 0
KSM2 290723Z 19013KT 26/10 A2974 RMK A01 T02550103  RH  038%=      5-min Rain = 0
KSM2 290724Z 19014KT 26/10 A2974 RMK A01 T02550103  RH  038%=      5-min Rain = 0
KSM2 290725Z 19013KT 26/10 A2974 RMK A01 T02560103  RH  038%=      5-min Rain = 0
KSM2 290726Z 19013KT 26/10 A2974 RMK A01 T02560103  RH  038%=      5-min Rain = 0
KSM2 290727Z 19013KT 26/10 A2974 RMK A01 T02560103  RH  038%=      5-min Rain = 0
KSM2 290728Z 19013KT 26/10 A2974 RMK A01 T02560104  RH  038%=      5-min Rain = 0
KSM2 290729Z 19013KT 26/10 A2974 RMK A01 T02550104  RH  038%=      5-min Rain = 0
KSM2 290730Z 20012KT 26/10 A2974 RMK A01 T02550104  RH  039%=      5-min Rain = 0
KSM2 290731Z 20014KT 26/10 A2974 RMK A01 T02550104  RH  039%=      5-min Rain = 0
KSM2 290732Z 19012KT 26/11 A2974 RMK A01 T02550105  RH  039%=      5-min Rain = 0
KSM2 290733Z 19012KT 26/11 A2974 RMK A01 T02550105  RH  039%=      5-min Rain = 0
KSM2 290734Z 19014KT 25/11 A2974 RMK A01 T02540105  RH  039%=      5-min Rain = 0
KSM2 290735Z 19014KT 25/11 A2974 RMK A01 T02540105  RH  039%=      5-min Rain = 0
KSM2 290736Z 19013KT 26/11 A2974 RMK A01 T02550106  RH  039%=      5-min Rain = 0
KSM2 290737Z 20013KT 26/11 A2974 RMK A01 T02550107  RH  039%=      5-min Rain = 0
KSM2 290738Z 19013KT 26/11 A2974 RMK A01 T02550108  RH  040%=      5-min Rain = 0
KSM2 290739Z 20013KT 26/11 A2974 RMK A01 T02550108  RH  040%=      5-min Rain = 0
KSM2 290740Z 20013KT 26/11 A2974 RMK A01 T02550108  RH  040%=      5-min Rain = 0
KSM2 290741Z 20013KT 26/11 A2974 RMK A01 T02550109  RH  040%=      5-min Rain = 0
KSM2 290742Z 20013KT 26/11 A2974 RMK A01 T02550110  RH  040%=      5-min Rain = 0
KSM2 290743Z 20013KT 26/11 A2974 RMK A01 T02550111  RH  040%=      5-min Rain = 0
KSM2 290744Z 19014KT 26/11 A2974 RMK A01 T02550111  RH  041%=      5-min Rain = 0
KSM2 290745Z 20014KT 26/11 A2974 RMK A01 T02550112  RH  041%=      5-min Rain = 0
KSM2 290746Z 19014KT 26/11 A2974 RMK A01 T02550113  RH  041%=      5-min Rain = 0
KSM2 290747Z 20014KT 26/11 A2974 RMK A01 T02550113  RH  041%=      5-min Rain = 0
KSM2 290748Z 20014KT 26/11 A2974 RMK A01 T02550114  RH  041%=      5-min Rain = 0
KSM2 290749Z 20013KT 26/12 A2974 RMK A01 T02550115  RH  042%=      5-min Rain = 0
KSM2 290750Z 19014KT 26/12 A2974 RMK A01 T02550116  RH  042%=      5-min Rain = 0
KSM2 290751Z 19013KT 25/12 A2974 RMK A01 T02540117  RH  042%=      5-min Rain = 0
KSM2 290752Z 20014KT 25/12 A2974 RMK A01 T02540117  RH  042%=      5-min Rain = 0
KSM2 290753Z 20013KT 25/12 A2974 RMK A01 T02540118  RH  043%=      5-min Rain = 0
KSM2 290754Z 20013KT 25/12 A2974 RMK A01 T02540120  RH  043%=      5-min Rain = 0
KSM2 290755Z 20015KT 25/12 A2974 RMK A01 T02530120  RH  043%=      5-min Rain = 0
KSM2 290756Z 20015KT 25/12 A2974 RMK A01 T02530121  RH  044%=      5-min Rain = 0
KSM2 290757Z 20014KT 25/12 A2974 RMK A01 T02540121  RH  044%=      5-min Rain = 0
KSM2 290758Z 20013KT 25/12 A2974 RMK A01 T02540122  RH  044%=      5-min Rain = 0
KSM2 290759Z 20014KT 25/12 A2974 RMK A01 T02530122  RH  044%=      5-min Rain = 0
KSM2 290800Z 20014KT 25/12 A2974 RMK A01 T02530123  RH  044%=      5-min Rain = 0
KSM2 290801Z 20014KT 25/12 A2974 RMK A01 T02530124  RH  045%=      5-min Rain = 0
KSM2 290802Z 20013KT 25/12 A2974 RMK A01 T02530124  RH  045%=      5-min Rain = 0
KSM2 290803Z 20012KT 25/13 A2974 RMK A01 T02520125  RH  045%=      5-min Rain = 0
KSM2 290804Z 20012KT 25/13 A2974 RMK A01 T02510125  RH  045%=      5-min Rain = 0
KSM2 290805Z 20013KT 25/13 A2974 RMK A01 T02510126  RH  046%=      5-min Rain = 0
KSM2 290806Z 20013KT 25/13 A2974 RMK A01 T02510126  RH  046%=      5-min Rain = 0
KSM2 290807Z 20013KT 25/13 A2974 RMK A01 T02500127  RH  046%=      5-min Rain = 0
KSM2 290808Z 20012KT 25/13 A2974 RMK A01 T02500127  RH  046%=      5-min Rain = 0
KSM2 290809Z 20014KT 25/13 A2974 RMK A01 T02500128  RH  047%=      5-min Rain = 0
KSM2 290810Z 20012KT 25/13 A2974 RMK A01 T02500128  RH  047%=      5-min Rain = 0
KSM2 290811Z 20012KT 25/13 A2974 RMK A01 T02500129  RH  047%=      5-min Rain = 0
KSM2 290812Z 20013KT 25/13 A2974 RMK A01 T02490129  RH  047%=      5-min Rain = 0
KSM2 290813Z 20011KT 25/13 A2974 RMK A01 T02490129  RH  047%=      5-min Rain = 0
KSM2 290814Z 20011KT 25/13 A2974 RMK A01 T02480130  RH  048%=      5-min Rain = 0
KSM2 290815Z 20011KT 25/13 A2974 RMK A01 T02480130  RH  048%=      5-min Rain = 0
KSM2 290816Z 20010KT 25/13 A2974 RMK A01 T02470131  RH  048%=      5-min Rain = 0
KSM2 290817Z 20011KT 25/13 A2974 RMK A01 T02470131  RH  048%=      5-min Rain = 0
KSM2 290818Z 20011KT 25/13 A2974 RMK A01 T02470132  RH  049%=      5-min Rain = 0
KSM2 290819Z 20012KT 25/13 A2974 RMK A01 T02460133  RH  049%=      5-min Rain = 0
KSM2 290820Z 20011KT 25/13 A2974 RMK A01 T02460133  RH  049%=      5-min Rain = 0
KSM2 290821Z 20011KT 25/13 A2974 RMK A01 T02460134  RH  050%=      5-min Rain = 0
KSM2 290822Z 19012KT 25/14 A2974 RMK A01 T02460135  RH  050%=      5-min Rain = 0
KSM2 290823Z 19011KT 25/14 A2974 RMK A01 T02460135  RH  050%=      5-min Rain = 0
KSM2 290824Z 19011KT 25/14 A2974 RMK A01 T02460136  RH  050%=      5-min Rain = 0
KSM2 290825Z 19011KT 25/14 A2974 RMK A01 T02450137  RH  051%=      5-min Rain = 0
KSM2 290826Z 20010KT 24/14 A2974 RMK A01 T02440138  RH  051%=      5-min Rain = 0
KSM2 290827Z 19011KT 24/14 A2974 RMK A01 T02440138  RH  052%=      5-min Rain = 0
KSM2 290828Z 19011KT 24/14 A2974 RMK A01 T02440139  RH  052%=      5-min Rain = 0
KSM2 290829Z 19010KT 24/14 A2974 RMK A01 T02440140  RH  052%=      5-min Rain = 0
KSM2 290830Z 19011KT 24/14 A2974 RMK A01 T02430140  RH  053%=      5-min Rain = 0
KSM2 290831Z 19011KT 24/14 A2974 RMK A01 T02430141  RH  053%=      5-min Rain = 0
KSM2 290832Z 19011KT 24/14 A2974 RMK A01 T02430142  RH  053%=      5-min Rain = 0
KSM2 290833Z 19010KT 24/14 A2974 RMK A01 T02430142  RH  053%=      5-min Rain = 0
KSM2 290834Z 19011KT 24/14 A2974 RMK A01 T02430143  RH  054%=      5-min Rain = 0
KSM2 290835Z 19011KT 24/15 A2974 RMK A01 T02430145  RH  054%=      5-min Rain = 0
KSM2 290836Z 19010KT 24/15 A2974 RMK A01 T02430145  RH  054%=      5-min Rain = 0
KSM2 290837Z 19010KT 24/15 A2974 RMK A01 T02430146  RH  055%=      5-min Rain = 0
KSM2 290838Z 19010KT 24/15 A2974 RMK A01 T02420146  RH  055%=      5-min Rain = 0
KSM2 290839Z 19009KT 24/15 A2974 RMK A01 T02420148  RH  056%=      5-min Rain = 0
KSM2 290840Z 19010KT 24/15 A2974 RMK A01 T02420149  RH  056%=      5-min Rain = 0
KSM2 290841Z 19010KT 24/15 A2974 RMK A01 T02410149  RH  056%=      5-min Rain = 0
KSM2 290842Z 19010KT 24/15 A2974 RMK A01 T02410150  RH  057%=      5-min Rain = 0
KSM2 290843Z 18009KT 24/15 A2974 RMK A01 T02420151  RH  057%=      5-min Rain = 0
KSM2 290844Z 18010KT 24/15 A2974 RMK A01 T02420152  RH  057%=      5-min Rain = 0
KSM2 290845Z 19010KT 24/15 A2974 RMK A01 T02420153  RH  058%=      5-min Rain = 0
KSM2 290846Z 19009KT 24/15 A2974 RMK A01 T02410154  RH  058%=      5-min Rain = 0
KSM2 290847Z 19009KT 24/15 A2974 RMK A01 T02410154  RH  058%=      5-min Rain = 0
KSM2 290848Z 19010KT 24/16 A2974 RMK A01 T02410155  RH  059%=      5-min Rain = 0
KSM2 290849Z 19009KT 24/16 A2974 RMK A01 T02410156  RH  059%=      5-min Rain = 0
KSM2 290850Z 19010KT 24/16 A2974 RMK A01 T02410157  RH  059%=      5-min Rain = 0
KSM2 290851Z 19010KT 24/16 A2974 RMK A01 T02420158  RH  059%=      5-min Rain = 0
KSM2 290852Z 19010KT 24/16 A2974 RMK A01 T02420159  RH  060%=      5-min Rain = 0
KSM2 290853Z 19010KT 24/16 A2974 RMK A01 T02420160  RH  060%=      5-min Rain = 0
KSM2 290854Z 19011KT 24/16 A2974 RMK A01 T02420160  RH  060%=      5-min Rain = 0
KSM2 290855Z 19011KT 24/16 A2974 RMK A01 T02420161  RH  060%=      5-min Rain = 0
KSM2 290856Z 19011KT 24/16 A2974 RMK A01 T02430162  RH  061%=      5-min Rain = 0
KSM2 290857Z 19010KT 24/16 A2974 RMK A01 T02430162  RH  060%=      5-min Rain = 0
KSM2 290858Z 19010KT 24/16 A2974 RMK A01 T02430162  RH  061%=      5-min Rain = 0
KSM2 290859Z 19011KT 24/16 A2974 RMK A01 T02430163  RH  061%=      5-min Rain = 0
KSM2 290900Z 19012KT 24/16 A2974 RMK A01 T02420163  RH  061%=      5-min Rain = 0
KSM2 290901Z 19010KT 24/16 A2974 RMK A01 T02420163  RH  061%=      5-min Rain = 0
KSM2 290902Z 19011KT 24/16 A2974 RMK A01 T02430163  RH  061%=      5-min Rain = 0
KSM2 290903Z 19011KT 24/16 A2974 RMK A01 T02420163  RH  061%=      5-min Rain = 0
KSM2 290904Z 19012KT 24/16 A2974 RMK A01 T02430164  RH  061%=      5-min Rain = 0
KSM2 290905Z 19012KT 24/16 A2974 RMK A01 T02430164  RH  061%=      5-min Rain = 0
KSM2 290906Z 19013KT 24/16 A2974 RMK A01 T02440164  RH  061%=      5-min Rain = 0
KSM2 290907Z 19012KT 24/16 A2974 RMK A01 T02440164  RH  061%=      5-min Rain = 0
KSM2 290908Z 19012KT 24/17 A2974 RMK A01 T02430165  RH  062%=      5-min Rain = 0
KSM2 290909Z 19012KT 24/16 A2974 RMK A01 T02430164  RH  061%=      5-min Rain = 0
KSM2 290910Z 19012KT 24/17 A2974 RMK A01 T02440165  RH  061%=      5-min Rain = 0
KSM2 290911Z 19013KT 24/17 A2974 RMK A01 T02430165  RH  062%=      5-min Rain = 0
KSM2 290912Z 19013KT 24/17 A2974 RMK A01 T02430165  RH  062%=      5-min Rain = 0
KSM2 290913Z 19012KT 24/17 A2974 RMK A01 T02430165  RH  062%=      5-min Rain = 0
KSM2 290914Z 19013KT 24/17 A2974 RMK A01 T02430165  RH  062%=      5-min Rain = 0
KSM2 290915Z 19013KT 24/17 A2974 RMK A01 T02430165  RH  062%=      5-min Rain = 0
KSM2 290916Z 19013KT 24/17 A2974 RMK A01 T02440166  RH  062%=      5-min Rain = 0
KSM2 290917Z 20011KT 24/17 A2974 RMK A01 T02430166  RH  062%=      5-min Rain = 0
KSM2 290918Z 19013KT 24/17 A2974 RMK A01 T02430166  RH  062%=      5-min Rain = 0
KSM2 290919Z 19013KT 24/17 A2974 RMK A01 T02430166  RH  062%=      5-min Rain = 0
KSM2 290920Z 20013KT 24/17 A2974 RMK A01 T02430166  RH  062%=      5-min Rain = 0
KSM2 290921Z 20014KT 24/17 A2974 RMK A01 T02430166  RH  062%=      5-min Rain = 0
KSM2 290922Z 19013KT 24/17 A2974 RMK A01 T02430166  RH  062%=      5-min Rain = 0
KSM2 290923Z 19012KT 24/17 A2974 RMK A01 T02430166  RH  062%=      5-min Rain = 0
KSM2 290924Z 19013KT 24/17 A2974 RMK A01 T02420166  RH  062%=      5-min Rain = 0
KSM2 290925Z 19013KT 24/17 A2974 RMK A01 T02420166  RH  062%=      5-min Rain = 0
KSM2 290926Z 19013KT 24/17 A2974 RMK A01 T02420166  RH  062%=      5-min Rain = 0
KSM2 290927Z 19013KT 24/17 A2974 RMK A01 T02420166  RH  062%=      5-min Rain = 0
KSM2 290928Z 20013KT 24/17 A2974 RMK A01 T02420166  RH  062%=      5-min Rain = 0
KSM2 290929Z 20013KT 24/17 A2974 RMK A01 T02420166  RH  062%=      5-min Rain = 0
KSM2 290930Z 19012KT 24/17 A2974 RMK A01 T02420166  RH  062%=      5-min Rain = 0
KSM2 290931Z 20013KT 24/17 A2974 RMK A01 T02410166  RH  063%=      5-min Rain = 0
KSM2 290932Z 20012KT 24/17 A2974 RMK A01 T02410166  RH  063%=      5-min Rain = 0
KSM2 290933Z 20013KT 24/17 A2974 RMK A01 T02410166  RH  063%=      5-min Rain = 0
KSM2 290934Z 20013KT 24/17 A2974 RMK A01 T02410166  RH  063%=      5-min Rain = 0
KSM2 290935Z 19014KT 24/17 A2974 RMK A01 T02410167  RH  063%=      5-min Rain = 0
KSM2 290936Z 19014KT 24/17 A2974 RMK A01 T02410166  RH  063%=      5-min Rain = 0
KSM2 290937Z 19013KT 24/17 A2974 RMK A01 T02410166  RH  063%=      5-min Rain = 0
KSM2 290938Z 20014KT 24/17 A2974 RMK A01 T02410166  RH  063%=      5-min Rain = 0
KSM2 290939Z 19014KT 24/17 A2974 RMK A01 T02410167  RH  063%=      5-min Rain = 0
KSM2 290940Z 20014KT 24/17 A2974 RMK A01 T02410167  RH  063%=      5-min Rain = 0
KSM2 290941Z 19012KT 24/17 A2974 RMK A01 T02400167  RH  063%=      5-min Rain = 0
KSM2 290942Z 20013KT 24/17 A2974 RMK A01 T02400167  RH  064%=      5-min Rain = 0
KSM2 290943Z 20014KT 24/17 A2974 RMK A01 T02400167  RH  064%=      5-min Rain = 0
KSM2 290944Z 20015KT 24/17 A2974 RMK A01 T02400167  RH  064%=      5-min Rain = 0
KSM2 290945Z 19013KT 24/17 A2974 RMK A01 T02400166  RH  064%=      5-min Rain = 0
KSM2 290946Z 20014KT 24/17 A2974 RMK A01 T02400167  RH  064%=      5-min Rain = 0
KSM2 290947Z 20013G19KT 24/17 A2974 RMK A01 T02400167  RH  064%=      5-min Rain = 0
KSM2 290948Z 20014KT 24/17 A2975 RMK A01 T02400167  RH  064%=      5-min Rain = 0
KSM2 290949Z 20014KT 24/17 A2975 RMK A01 T02400167  RH  064%=      5-min Rain = 0
KSM2 290950Z 20011KT 24/17 A2975 RMK A01 T02400167  RH  064%=      5-min Rain = 0
KSM2 290951Z 20012KT 24/17 A2975 RMK A01 T02390167  RH  064%=      5-min Rain = 0
KSM2 290952Z 20012KT 24/17 A2975 RMK A01 T02390167  RH  064%=      5-min Rain = 0
KSM2 290953Z 20014KT 24/17 A2975 RMK A01 T02390167  RH  064%=      5-min Rain = 0
KSM2 290954Z 19013KT 24/17 A2975 RMK A01 T02380167  RH  064%=      5-min Rain = 0
KSM2 290955Z 20013KT 24/17 A2975 RMK A01 T02390167  RH  064%=      5-min Rain = 0
KSM2 290956Z 20013KT 24/17 A2975 RMK A01 T02390167  RH  064%=      5-min Rain = 0
KSM2 290957Z 20013KT 24/17 A2975 RMK A01 T02390167  RH  064%=      5-min Rain = 0
KSM2 290958Z 19013KT 24/17 A2975 RMK A01 T02380167  RH  064%=      5-min Rain = 0
KSM2 290959Z 19013KT 24/17 A2975 RMK A01 T02380167  RH  065%=      5-min Rain = 0
KSM2 291000Z 19012KT 24/17 A2975 RMK A01 T02370167  RH  065%=      5-min Rain = 0
KSM2 291001Z 19013KT 24/17 A2975 RMK A01 T02370167  RH  065%=      5-min Rain = 0
KSM2 291002Z 19014KT 24/17 A2975 RMK A01 T02370167  RH  065%=      5-min Rain = 0
KSM2 291003Z 19013KT 24/17 A2975 RMK A01 T02370167  RH  065%=      5-min Rain = 0
KSM2 291004Z 19012KT 24/17 A2975 RMK A01 T02370167  RH  065%=      5-min Rain = 0
KSM2 291005Z 19012KT 24/17 A2975 RMK A01 T02370167  RH  065%=      5-min Rain = 0
KSM2 291006Z 19012KT 24/17 A2975 RMK A01 T02360167  RH  065%=      5-min Rain = 0
KSM2 291007Z 19011G16KT 24/17 A2975 RMK A01 T02350167  RH  065%=      5-min Rain = 0
KSM2 291008Z 19012KT 24/17 A2975 RMK A01 T02350167  RH  066%=      5-min Rain = 0
KSM2 291009Z 19011KT 24/17 A2975 RMK A01 T02350167  RH  066%=      5-min Rain = 0
KSM2 291010Z 19012KT 23/17 A2975 RMK A01 T02340167  RH  066%=      5-min Rain = 0
KSM2 291011Z 19013KT 23/17 A2975 RMK A01 T02340167  RH  066%=      5-min Rain = 0
KSM2 291012Z 20013KT 23/17 A2975 RMK A01 T02340167  RH  066%=      5-min Rain = 0
KSM2 291013Z 20012KT 23/17 A2975 RMK A01 T02340167  RH  066%=      5-min Rain = 0
KSM2 291014Z 20012KT 23/17 A2975 RMK A01 T02340167  RH  066%=      5-min Rain = 0
KSM2 291015Z 20013KT 23/17 A2975 RMK A01 T02340167  RH  066%=      5-min Rain = 0
KSM2 291016Z 20012KT 24/17 A2975 RMK A01 T02350167  RH  066%=      5-min Rain = 0
KSM2 291017Z 20012KT 23/17 A2975 RMK A01 T02340167  RH  066%=      5-min Rain = 0
KSM2 291018Z 20012KT 23/17 A2975 RMK A01 T02340167  RH  066%=      5-min Rain = 0
KSM2 291019Z 19013KT 23/17 A2975 RMK A01 T02340167  RH  066%=      5-min Rain = 0
KSM2 291020Z 20014KT 23/17 A2975 RMK A01 T02340167  RH  066%=      5-min Rain = 0
KSM2 291021Z 20012KT 23/17 A2975 RMK A01 T02340167  RH  066%=      5-min Rain = 0
KSM2 291022Z 20011KT 23/17 A2975 RMK A01 T02340167  RH  066%=      5-min Rain = 0
KSM2 291023Z 19012KT 23/17 A2976 RMK A01 T02340167  RH  066%=      5-min Rain = 0
KSM2 291024Z 20012KT 23/17 A2976 RMK A01 T02340167  RH  066%=      5-min Rain = 0
KSM2 291025Z 20012G17KT 23/17 A2976 RMK A01 T02330167  RH  066%=      5-min Rain = 0
KSM2 291026Z 20014KT 23/17 A2976 RMK A01 T02330167  RH  066%=      5-min Rain = 0
KSM2 291027Z 20013KT 23/17 A2976 RMK A01 T02330167  RH  066%=      5-min Rain = 0
KSM2 291028Z 20013KT 23/17 A2976 RMK A01 T02330167  RH  066%=      5-min Rain = 0
KSM2 291029Z 20013KT 23/17 A2976 RMK A01 T02330167  RH  066%=      5-min Rain = 0
KSM2 291030Z 20013KT 23/17 A2976 RMK A01 T02330166  RH  066%=      5-min Rain = 0
KSM2 291031Z 20013KT 23/17 A2976 RMK A01 T02330166  RH  066%=      5-min Rain = 0
KSM2 291032Z 20013KT 23/17 A2976 RMK A01 T02330167  RH  066%=      5-min Rain = 0
KSM2 291033Z 20013KT 23/17 A2976 RMK A01 T02330167  RH  066%=      5-min Rain = 0
KSM2 291034Z 20013KT 23/17 A2976 RMK A01 T02330167  RH  066%=      5-min Rain = 0
KSM2 291035Z 20014KT 23/17 A2976 RMK A01 T02330167  RH  066%=      5-min Rain = 0
KSM2 291036Z 20013KT 23/17 A2976 RMK A01 T02320166  RH  066%=      5-min Rain = 0
KSM2 291037Z 20014KT 23/17 A2976 RMK A01 T02330166  RH  066%=      5-min Rain = 0
KSM2 291038Z 20014KT 23/17 A2976 RMK A01 T02320166  RH  066%=      5-min Rain = 0
KSM2 291039Z 19012KT 23/17 A2976 RMK A01 T02330166  RH  066%=      5-min Rain = 0
KSM2 291040Z 20015KT 23/17 A2976 RMK A01 T02320166  RH  066%=      5-min Rain = 0
KSM2 291041Z 20015KT 23/17 A2976 RMK A01 T02320166  RH  066%=      5-min Rain = 0
KSM2 291042Z 20013KT 23/17 A2976 RMK A01 T02320166  RH  066%=      5-min Rain = 0
KSM2 291043Z 19015KT 23/17 A2976 RMK A01 T02320166  RH  066%=      5-min Rain = 0
KSM2 291044Z 19014KT 23/17 A2976 RMK A01 T02320166  RH  066%=      5-min Rain = 0
KSM2 291045Z 19014G19KT 23/17 A2976 RMK A01 T02320166  RH  066%=      5-min Rain = 0
KSM2 291046Z 20014KT 23/17 A2976 RMK A01 T02320166  RH  066%=      5-min Rain = 0
KSM2 291047Z 19013KT 23/17 A2976 RMK A01 T02320166  RH  066%=      5-min Rain = 0
KSM2 291048Z 20015KT 23/17 A2976 RMK A01 T02320166  RH  066%=      5-min Rain = 0
KSM2 291049Z 19013KT 23/17 A2976 RMK A01 T02320166  RH  066%=      5-min Rain = 0
KSM2 291050Z 20013KT 23/17 A2976 RMK A01 T02320165  RH  066%=      5-min Rain = 0
KSM2 291051Z 20013KT 23/17 A2976 RMK A01 T02310165  RH  066%=      5-min Rain = 0
KSM2 291052Z 20013KT 23/17 A2976 RMK A01 T02310165  RH  066%=      5-min Rain = 0
KSM2 291053Z 20013KT 23/17 A2976 RMK A01 T02310165  RH  066%=      5-min Rain = 0
KSM2 291054Z 20016KT 23/17 A2976 RMK A01 T02310165  RH  066%=      5-min Rain = 0
KSM2 291055Z 19014KT 23/17 A2976 RMK A01 T02310165  RH  066%=      5-min Rain = 0
KSM2 291056Z 20015KT 23/17 A2976 RMK A01 T02310165  RH  066%=      5-min Rain = 0
KSM2 291057Z 19015KT 23/16 A2976 RMK A01 T02310164  RH  066%=      5-min Rain = 0
KSM2 291058Z 19015KT 23/17 A2976 RMK A01 T02310165  RH  066%=      5-min Rain = 0
KSM2 291059Z 20013KT 23/16 A2976 RMK A01 T02300164  RH  066%=      5-min Rain = 0
KSM2 291100Z 19014KT 23/16 A2976 RMK A01 T02300164  RH  066%=      5-min Rain = 0
KSM2 291101Z 20013KT 23/16 A2976 RMK A01 T02300164  RH  066%=      5-min Rain = 0
KSM2 291102Z 19013KT 23/16 A2976 RMK A01 T02300164  RH  067%=      5-min Rain = 0
KSM2 291103Z 20014KT 23/16 A2976 RMK A01 T02290164  RH  067%=      5-min Rain = 0
KSM2 291104Z 20014KT 23/16 A2976 RMK A01 T02290164  RH  067%=      5-min Rain = 0
KSM2 291105Z 20014KT 23/16 A2976 RMK A01 T02290164  RH  067%=      5-min Rain = 0
KSM2 291106Z 20013KT 23/16 A2976 RMK A01 T02290163  RH  067%=      5-min Rain = 0
KSM2 291107Z 20013KT 23/16 A2976 RMK A01 T02290164  RH  067%=      5-min Rain = 0
KSM2 291108Z 19015KT 23/16 A2976 RMK A01 T02290164  RH  067%=      5-min Rain = 0
KSM2 291109Z 20014KT 23/16 A2976 RMK A01 T02290163  RH  067%=      5-min Rain = 0
KSM2 291110Z 20014KT 23/16 A2977 RMK A01 T02290163  RH  066%=      5-min Rain = 0
KSM2 291111Z 20014KT 23/16 A2977 RMK A01 T02290163  RH  066%=      5-min Rain = 0
KSM2 291112Z 20012KT 23/16 A2977 RMK A01 T02290163  RH  067%=      5-min Rain = 0
KSM2 291113Z 20011KT 23/16 A2977 RMK A01 T02280163  RH  067%=      5-min Rain = 0
KSM2 291114Z 20014KT 23/16 A2977 RMK A01 T02280163  RH  067%=      5-min Rain = 0
KSM2 291115Z 20015KT 23/16 A2977 RMK A01 T02280163  RH  067%=      5-min Rain = 0
KSM2 291116Z 20013KT 23/16 A2977 RMK A01 T02280163  RH  067%=      5-min Rain = 0
KSM2 291117Z 20014G19KT 23/16 A2977 RMK A01 T02270162  RH  067%=      5-min Rain = 0
KSM2 291118Z 20013KT 23/16 A2977 RMK A01 T02270162  RH  067%=      5-min Rain = 0
KSM2 291119Z 20014KT 23/16 A2977 RMK A01 T02270162  RH  067%=      5-min Rain = 0
KSM2 291120Z 20013KT 23/16 A2977 RMK A01 T02270162  RH  067%=      5-min Rain = 0
KSM2 291121Z 20013KT 23/16 A2977 RMK A01 T02270162  RH  067%=      5-min Rain = 0
KSM2 291122Z 20012KT 23/16 A2977 RMK A01 T02270162  RH  067%=      5-min Rain = 0
KSM2 291123Z 20012KT 23/16 A2977 RMK A01 T02260162  RH  067%=      5-min Rain = 0
KSM2 291124Z 20013KT 23/16 A2977 RMK A01 T02260162  RH  067%=      5-min Rain = 0
KSM2 291125Z 20013KT 23/16 A2977 RMK A01 T02260162  RH  067%=      5-min Rain = 0
KSM2 291126Z 20013KT 23/16 A2977 RMK A01 T02260162  RH  067%=      5-min Rain = 0
KSM2 291127Z 20012KT 23/16 A2977 RMK A01 T02250162  RH  067%=      5-min Rain = 0
KSM2 291128Z 20013KT 23/16 A2977 RMK A01 T02250162  RH  067%=      5-min Rain = 0
KSM2 291129Z 20013KT 23/16 A2977 RMK A01 T02250162  RH  067%=      5-min Rain = 0
KSM2 291130Z 20013KT 23/16 A2977 RMK A01 T02250162  RH  067%=      5-min Rain = 0
KSM2 291131Z 20012KT 23/16 A2977 RMK A01 T02250161  RH  067%=      5-min Rain = 0
KSM2 291132Z 20013KT 22/16 A2977 RMK A01 T02240161  RH  068%=      5-min Rain = 0
KSM2 291133Z 20013KT 22/16 A2977 RMK A01 T02240161  RH  068%=      5-min Rain = 0
KSM2 291134Z 20013KT 22/16 A2977 RMK A01 T02240161  RH  068%=      5-min Rain = 0
KSM2 291135Z 20014KT 22/16 A2977 RMK A01 T02240161  RH  067%=      5-min Rain = 0
KSM2 291136Z 20013KT 22/16 A2977 RMK A01 T02240161  RH  067%=      5-min Rain = 0
KSM2 291137Z 20013KT 22/16 A2977 RMK A01 T02240161  RH  067%=      5-min Rain = 0
KSM2 291138Z 20012KT 22/16 A2978 RMK A01 T02240161  RH  067%=      5-min Rain = 0
KSM2 291139Z 20014KT 22/16 A2977 RMK A01 T02240161  RH  067%=      5-min Rain = 0
KSM2 291140Z 20012KT 22/16 A2978 RMK A01 T02240161  RH  067%=      5-min Rain = 0
KSM2 291141Z 20011KT 22/16 A2978 RMK A01 T02230160  RH  068%=      5-min Rain = 0
KSM2 291142Z 20012KT 22/16 A2978 RMK A01 T02230160  RH  068%=      5-min Rain = 0
KSM2 291143Z 20012KT 22/16 A2978 RMK A01 T02230161  RH  068%=      5-min Rain = 0
KSM2 291144Z 20011KT 22/16 A2978 RMK A01 T02230161  RH  068%=      5-min Rain = 0
KSM2 291145Z 20014KT 22/16 A2978 RMK A01 T02230160  RH  068%=      5-min Rain = 0
KSM2 291146Z 20011KT 22/16 A2978 RMK A01 T02230160  RH  067%=      5-min Rain = 0
KSM2 291147Z 20012KT 22/16 A2978 RMK A01 T02230160  RH  067%=      5-min Rain = 0
KSM2 291148Z 20012KT 22/16 A2978 RMK A01 T02230160  RH  067%=      5-min Rain = 0
KSM2 291149Z 20012KT 22/16 A2978 RMK A01 T02230160  RH  068%=      5-min Rain = 0
KSM2 291150Z 20012KT 22/16 A2978 RMK A01 T02220159  RH  068%=      5-min Rain = 0
KSM2 291151Z 20012KT 22/16 A2978 RMK A01 T02220160  RH  068%=      5-min Rain = 0
KSM2 291152Z 20012KT 22/16 A2978 RMK A01 T02220160  RH  068%=      5-min Rain = 0
KSM2 291153Z 20012KT 22/16 A2978 RMK A01 T02210159  RH  068%=      5-min Rain = 0
KSM2 291154Z 20012KT 22/16 A2978 RMK A01 T02210159  RH  068%=      5-min Rain = 0
KSM2 291155Z 20013G18KT 22/16 A2978 RMK A01 T02210159  RH  068%=      5-min Rain = 0
KSM2 291156Z 20013KT 22/16 A2978 RMK A01 T02220159  RH  068%=      5-min Rain = 0
KSM2 291157Z 20012KT 22/16 A2978 RMK A01 T02220159  RH  067%=      5-min Rain = 0
KSM2 291158Z 20012KT 22/16 A2978 RMK A01 T02220158  RH  067%=      5-min Rain = 0
KSM2 291159Z 20011KT 22/16 A2978 RMK A01 T02220159  RH  067%=      5-min Rain = 0
KSM2 291200Z 20011KT 22/16 A2978 RMK A01 T02220158  RH  067%=      5-min Rain = 0
KSM2 291201Z 20014KT 22/16 A2978 RMK A01 T02220158  RH  067%=      5-min Rain = 0
KSM2 291202Z 20012KT 22/16 A2978 RMK A01 T02220158  RH  067%=      5-min Rain = 0
KSM2 291203Z 20012KT 22/16 A2978 RMK A01 T02220158  RH  067%=      5-min Rain = 0
KSM2 291204Z 20013KT 22/16 A2978 RMK A01 T02220157  RH  067%=      5-min Rain = 0
KSM2 291205Z 20011KT 22/16 A2978 RMK A01 T02220158  RH  067%=      5-min Rain = 0
KSM2 291206Z 20012KT 22/16 A2978 RMK A01 T02220158  RH  067%=      5-min Rain = 0
KSM2 291207Z 20012KT 22/16 A2978 RMK A01 T02230158  RH  067%=      5-min Rain = 0
KSM2 291208Z 20011G17KT 22/16 A2978 RMK A01 T02220157  RH  067%=      5-min Rain = 0
KSM2 291209Z 20012KT 22/16 A2978 RMK A01 T02220157  RH  066%=      5-min Rain = 0
KSM2 291210Z 20012KT 22/16 A2978 RMK A01 T02220157  RH  066%=      5-min Rain = 0
KSM2 291211Z 21012KT 22/16 A2978 RMK A01 T02230157  RH  066%=      5-min Rain = 0
KSM2 291212Z 20012KT 22/16 A2978 RMK A01 T02220157  RH  066%=      5-min Rain = 0
KSM2 291213Z 21012KT 22/16 A2978 RMK A01 T02230157  RH  066%=      5-min Rain = 0
KSM2 291214Z 20012KT 22/16 A2978 RMK A01 T02230156  RH  066%=      5-min Rain = 0
KSM2 291215Z 20011KT 22/16 A2978 RMK A01 T02240157  RH  066%=      5-min Rain = 0
KSM2 291216Z 20011KT 22/16 A2978 RMK A01 T02240157  RH  066%=      5-min Rain = 0
KSM2 291217Z 20013KT 22/16 A2978 RMK A01 T02230157  RH  066%=      5-min Rain = 0
KSM2 291218Z 20011KT 22/16 A2978 RMK A01 T02230156  RH  066%=      5-min Rain = 0
KSM2 291219Z 20012KT 22/16 A2978 RMK A01 T02230156  RH  066%=      5-min Rain = 0
KSM2 291220Z 20013KT 22/16 A2978 RMK A01 T02240156  RH  066%=      5-min Rain = 0
KSM2 291221Z 20012KT 22/16 A2978 RMK A01 T02240156  RH  065%=      5-min Rain = 0
KSM2 291222Z 20011KT 22/16 A2978 RMK A01 T02240156  RH  065%=      5-min Rain = 0
KSM2 291223Z 20011KT 22/16 A2978 RMK A01 T02240157  RH  066%=      5-min Rain = 0
KSM2 291224Z 20011KT 22/16 A2978 RMK A01 T02240156  RH  066%=      5-min Rain = 0
KSM2 291225Z 21012KT 22/16 A2978 RMK A01 T02240156  RH  065%=      5-min Rain = 0
KSM2 291226Z 20012KT 22/16 A2978 RMK A01 T02240156  RH  065%=      5-min Rain = 0
KSM2 291227Z 20012KT 22/16 A2978 RMK A01 T02240156  RH  065%=      5-min Rain = 0
KSM2 291228Z 20013KT 23/16 A2978 RMK A01 T02250156  RH  065%=      5-min Rain = 0
KSM2 291229Z 20013KT 23/16 A2979 RMK A01 T02250155  RH  065%=      5-min Rain = 0
KSM2 291230Z 20012KT 23/16 A2979 RMK A01 T02250155  RH  065%=      5-min Rain = 0
KSM2 291231Z 21012KT 23/16 A2979 RMK A01 T02260155  RH  064%=      5-min Rain = 0
KSM2 291232Z 21013KT 23/16 A2979 RMK A01 T02260155  RH  064%=      5-min Rain = 0
KSM2 291233Z 21014KT 23/15 A2979 RMK A01 T02260154  RH  064%=      5-min Rain = 0
KSM2 291234Z 21014KT 23/16 A2979 RMK A01 T02270155  RH  064%=      5-min Rain = 0
KSM2 291235Z 21015KT 23/16 A2979 RMK A01 T02270155  RH  064%=      5-min Rain = 0
KSM2 291236Z 21013KT 23/15 A2979 RMK A01 T02270154  RH  063%=      5-min Rain = 0
KSM2 291237Z 21014KT 23/15 A2979 RMK A01 T02280154  RH  063%=      5-min Rain = 0
KSM2 291238Z 21014KT 23/15 A2979 RMK A01 T02280154  RH  063%=      5-min Rain = 0
KSM2 291239Z 21014KT 23/15 A2979 RMK A01 T02280154  RH  063%=      5-min Rain = 0
KSM2 291240Z 21012KT 23/15 A2979 RMK A01 T02280154  RH  063%=      5-min Rain = 0
KSM2 291241Z 21015KT 23/15 A2979 RMK A01 T02280154  RH  063%=      5-min Rain = 0
KSM2 291242Z 21015KT 23/15 A2979 RMK A01 T02290154  RH  063%=      5-min Rain = 0
KSM2 291243Z 21015KT 23/15 A2979 RMK A01 T02290154  RH  063%=      5-min Rain = 0
KSM2 291244Z 21015KT 23/15 A2979 RMK A01 T02290154  RH  062%=      5-min Rain = 0
KSM2 291245Z 21014KT 23/15 A2979 RMK A01 T02300153  RH  062%=      5-min Rain = 0
KSM2 291246Z 21013KT 23/15 A2979 RMK A01 T02300154  RH  062%=      5-min Rain = 0
KSM2 291247Z 21015KT 23/15 A2979 RMK A01 T02300153  RH  062%=      5-min Rain = 0
KSM2 291248Z 21014KT 23/15 A2979 RMK A01 T02310153  RH  062%=      5-min Rain = 0
KSM2 291249Z 21016KT 23/15 A2979 RMK A01 T02310153  RH  062%=      5-min Rain = 0
KSM2 291250Z 21015KT 23/15 A2979 RMK A01 T02310153  RH  061%=      5-min Rain = 0
KSM2 291251Z 21015KT 23/15 A2979 RMK A01 T02310152  RH  061%=      5-min Rain = 0
KSM2 291252Z 21013KT 23/15 A2979 RMK A01 T02320153  RH  061%=      5-min Rain = 0
KSM2 291253Z 21014KT 23/15 A2979 RMK A01 T02320153  RH  061%=      5-min Rain = 0
KSM2 291254Z 21014KT 23/15 A2979 RMK A01 T02320153  RH  061%=      5-min Rain = 0
KSM2 291255Z 21014KT 23/15 A2979 RMK A01 T02320152  RH  061%=      5-min Rain = 0
KSM2 291256Z 21014KT 23/15 A2979 RMK A01 T02330152  RH  060%=      5-min Rain = 0
KSM2 291257Z 21016KT 23/15 A2979 RMK A01 T02330152  RH  060%=      5-min Rain = 0
KSM2 291258Z 21014G19KT 23/15 A2979 RMK A01 T02330152  RH  060%=      5-min Rain = 0
KSM2 291259Z 21015KT 23/15 A2979 RMK A01 T02340152  RH  060%=      5-min Rain = 0
KSM2 291300Z 21013KT 23/15 A2979 RMK A01 T02340152  RH  060%=      5-min Rain = 0
KSM2 291301Z 21014KT 23/15 A2979 RMK A01 T02340152  RH  060%=      5-min Rain = 0
KSM2 291302Z 21014KT 24/15 A2979 RMK A01 T02350152  RH  060%=      5-min Rain = 0
KSM2 291303Z 21013KT 24/15 A2979 RMK A01 T02350152  RH  060%=      5-min Rain = 0
KSM2 291304Z 21014KT 24/15 A2979 RMK A01 T02350152  RH  059%=      5-min Rain = 0
KSM2 291305Z 21013KT 24/15 A2979 RMK A01 T02360152  RH  059%=      5-min Rain = 0
KSM2 291306Z 21012KT 24/15 A2979 RMK A01 T02360151  RH  059%=      5-min Rain = 0
KSM2 291307Z 21013KT 24/15 A2979 RMK A01 T02370152  RH  059%=      5-min Rain = 0
KSM2 291308Z 21014KT 24/15 A298 RMK A01 T02370151  RH  059%=      5-min Rain = 0
KSM2 291309Z 21013KT 24/15 A298 RMK A01 T02380151  RH  058%=      5-min Rain = 0
KSM2 291310Z 21012KT 24/15 A298 RMK A01 T02380151  RH  058%=      5-min Rain = 0
KSM2 291311Z 21014KT 24/15 A298 RMK A01 T02380151  RH  058%=      5-min Rain = 0
KSM2 291312Z 21014KT 24/15 A298 RMK A01 T02390149  RH  057%=      5-min Rain = 0
KSM2 291313Z 21013KT 24/15 A298 RMK A01 T02390150  RH  057%=      5-min Rain = 0
KSM2 291314Z 21012KT 24/15 A298 RMK A01 T02400149  RH  057%=      5-min Rain = 0
KSM2 291315Z 21012KT 24/15 A298 RMK A01 T02400150  RH  057%=      5-min Rain = 0
KSM2 291316Z 21015KT 24/15 A298 RMK A01 T02410149  RH  056%=      5-min Rain = 0
KSM2 291317Z 21013KT 24/15 A298 RMK A01 T02410148  RH  056%=      5-min Rain = 0
KSM2 291318Z 21015KT 24/15 A298 RMK A01 T02420148  RH  056%=      5-min Rain = 0
KSM2 291319Z 21016KT 24/15 A298 RMK A01 T02420146  RH  055%=      5-min Rain = 0
KSM2 291320Z 21015KT 24/15 A298 RMK A01 T02420147  RH  055%=      5-min Rain = 0
KSM2 291321Z 21016KT 24/15 A298 RMK A01 T02430146  RH  055%=      5-min Rain = 0
KSM2 291322Z 21015KT 24/15 A298 RMK A01 T02430146  RH  055%=      5-min Rain = 0
KSM2 291323Z 21014KT 24/15 A298 RMK A01 T02430146  RH  055%=      5-min Rain = 0
KSM2 291324Z 21014KT 24/15 A298 RMK A01 T02440146  RH  054%=      5-min Rain = 0
KSM2 291325Z 21014KT 24/15 A298 RMK A01 T02440146  RH  054%=      5-min Rain = 0
KSM2 291326Z 21014KT 25/15 A298 RMK A01 T02450145  RH  053%=      5-min Rain = 0
KSM2 291327Z 22015KT 25/15 A298 RMK A01 T02460145  RH  053%=      5-min Rain = 0
KSM2 291328Z 22013KT 25/14 A298 RMK A01 T02470144  RH  052%=      5-min Rain = 0
KSM2 291329Z 21014KT 25/14 A298 RMK A01 T02470144  RH  053%=      5-min Rain = 0
KSM2 291330Z 21014KT 25/14 A298 RMK A01 T02480144  RH  052%=      5-min Rain = 0
KSM2 291331Z 21014KT 25/14 A2981 RMK A01 T02490143  RH  052%=      5-min Rain = 0
KSM2 291332Z 21014KT 25/14 A2981 RMK A01 T02490142  RH  051%=      5-min Rain = 0
KSM2 291333Z 21013KT 25/14 A2981 RMK A01 T02500142  RH  051%=      5-min Rain = 0
KSM2 291334Z 22014KT 25/14 A2981 RMK A01 T02510142  RH  051%=      5-min Rain = 0
KSM2 291335Z 22015KT 25/14 A2981 RMK A01 T02510140  RH  050%=      5-min Rain = 0
KSM2 291336Z 22016KT 25/14 A2981 RMK A01 T02510139  RH  050%=      5-min Rain = 0
KSM2 291337Z 22015KT 25/14 A2981 RMK A01 T02510139  RH  050%=      5-min Rain = 0
KSM2 291338Z 22014G19KT 25/14 A2981 RMK A01 T02520138  RH  049%=      5-min Rain = 0
KSM2 291339Z 22015KT 25/14 A2981 RMK A01 T02520137  RH  049%=      5-min Rain = 0
KSM2 291340Z 21016KT 25/14 A2981 RMK A01 T02530137  RH  049%=      5-min Rain = 0
KSM2 291341Z 22015KT 25/14 A2981 RMK A01 T02530136  RH  048%=      5-min Rain = 0
KSM2 291342Z 22012G17KT 25/14 A2981 RMK A01 T02530139  RH  049%=      5-min Rain = 0
KSM2 291343Z 22015G21KT 25/14 A2981 RMK A01 T02540139  RH  049%=      5-min Rain = 0
KSM2 291344Z 22017KT 25/14 A2981 RMK A01 T02540135  RH  047%=      5-min Rain = 0
KSM2 291345Z 22016KT 26/14 A2981 RMK A01 T02550135  RH  048%=      5-min Rain = 0
KSM2 291346Z 22017KT 26/13 A2981 RMK A01 T02550134  RH  047%=      5-min Rain = 0
KSM2 291347Z 22016KT 26/14 A2981 RMK A01 T02550135  RH  047%=      5-min Rain = 0
KSM2 291348Z 22014KT 26/14 A2981 RMK A01 T02560136  RH  047%=      5-min Rain = 0
KSM2 291349Z 22018KT 26/13 A2981 RMK A01 T02560134  RH  047%=      5-min Rain = 0
KSM2 291350Z 22017KT 26/13 A2981 RMK A01 T02570134  RH  047%=      5-min Rain = 0
KSM2 291351Z 22016KT 26/13 A2981 RMK A01 T02570134  RH  046%=      5-min Rain = 0
KSM2 291352Z 22017KT 26/13 A2981 RMK A01 T02570134  RH  046%=      5-min Rain = 0
KSM2 291353Z 22016KT 26/13 A2981 RMK A01 T02570134  RH  046%=      5-min Rain = 0
KSM2 291354Z 22016KT 26/13 A2981 RMK A01 T02580131  RH  046%=      5-min Rain = 0
KSM2 291355Z 22016KT 26/13 A2981 RMK A01 T02580132  RH  045%=      5-min Rain = 0
KSM2 291356Z 23014KT 26/13 A2981 RMK A01 T02590131  RH  045%=      5-min Rain = 0
KSM2 291357Z 22017KT 26/13 A2981 RMK A01 T02590133  RH  045%=      5-min Rain = 0
KSM2 291358Z 22015KT 26/13 A2981 RMK A01 T02600134  RH  046%=      5-min Rain = 0
KSM2 291359Z 22015KT 26/13 A2981 RMK A01 T02600134  RH  046%=      5-min Rain = 0
KSM2 291400Z 23017KT 26/13 A2981 RMK A01 T02610130  RH  044%=      5-min Rain = 0
KSM2 291401Z 23017KT 26/13 A2981 RMK A01 T02620128  RH  044%=      5-min Rain = 0
KSM2 291402Z 23015KT 26/13 A2981 RMK A01 T02630127  RH  043%=      5-min Rain = 0
KSM2 291403Z 22016KT 26/13 A2981 RMK A01 T02630129  RH  044%=      5-min Rain = 0
KSM2 291404Z 22017KT 26/13 A2981 RMK A01 T02630129  RH  043%=      5-min Rain = 0
KSM2 291405Z 22017KT 26/13 A2981 RMK A01 T02640128  RH  043%=      5-min Rain = 0
KSM2 291406Z 22016KT 26/13 A2981 RMK A01 T02640127  RH  043%=      5-min Rain = 0
KSM2 291407Z 22016KT 26/13 A2981 RMK A01 T02640127  RH  043%=      5-min Rain = 0
KSM2 291408Z 23016KT 27/13 A2981 RMK A01 T02650125  RH  042%=      5-min Rain = 0
KSM2 291409Z 23017KT 27/12 A2981 RMK A01 T02660123  RH  041%=      5-min Rain = 0
KSM2 291410Z 23014KT 27/12 A2981 RMK A01 T02660124  RH  041%=      5-min Rain = 0
KSM2 291411Z 22015KT 27/13 A2981 RMK A01 T02670126  RH  042%=      5-min Rain = 0
KSM2 291412Z 23017KT 27/12 A2981 RMK A01 T02680123  RH  041%=      5-min Rain = 0
KSM2 291413Z 23015KT 27/12 A2981 RMK A01 T02680122  RH  040%=      5-min Rain = 0
KSM2 291414Z 23014G19KT 27/13 A2981 RMK A01 T02680125  RH  041%=      5-min Rain = 0
KSM2 291415Z 22017KT 27/12 A2981 RMK A01 T02690123  RH  040%=      5-min Rain = 0
KSM2 291416Z 22016KT 27/13 A2981 RMK A01 T02700125  RH  041%=      5-min Rain = 0
KSM2 291417Z 23014KT 27/12 A2981 RMK A01 T02700124  RH  040%=      5-min Rain = 0
KSM2 291418Z 23016KT 27/12 A2981 RMK A01 T02710123  RH  040%=      5-min Rain = 0
KSM2 291419Z 23015KT 27/12 A2981 RMK A01 T02710122  RH  040%=      5-min Rain = 0
KSM2 291420Z 23018KT 27/12 A2981 RMK A01 T02720121  RH  039%=      5-min Rain = 0
KSM2 291421Z 23017KT 27/12 A2981 RMK A01 T02720122  RH  039%=      5-min Rain = 0
KSM2 291422Z 23017KT 27/12 A2981 RMK A01 T02720121  RH  039%=      5-min Rain = 0
KSM2 291423Z 23016KT 27/12 A2981 RMK A01 T02720121  RH  039%=      5-min Rain = 0
KSM2 291424Z 23016KT 27/12 A2981 RMK A01 T02720121  RH  039%=      5-min Rain = 0
KSM2 291425Z 23013KT 27/12 A2981 RMK A01 T02730120  RH  039%=      5-min Rain = 0
KSM2 291426Z 23016G21KT 28/12 A2981 RMK A01 T02750121  RH  038%=      5-min Rain = 0
KSM2 291427Z 23017KT 28/12 A2981 RMK A01 T02760117  RH  037%=      5-min Rain = 0
KSM2 291428Z 24016KT 28/12 A2981 RMK A01 T02750115  RH  037%=      5-min Rain = 0
KSM2 291429Z 24013KT 28/12 A2981 RMK A01 T02750119  RH  038%=      5-min Rain = 0
KSM2 291430Z 24014G19KT 28/12 A2981 RMK A01 T02770119  RH  037%=      5-min Rain = 0
KSM2 291431Z 24016KT 28/11 A2981 RMK A01 T02780114  RH  036%=      5-min Rain = 0
KSM2 291432Z 23015KT 28/12 A2981 RMK A01 T02780116  RH  037%=      5-min Rain = 0
KSM2 291433Z 23015KT 28/12 A2981 RMK A01 T02780119  RH  037%=      5-min Rain = 0
KSM2 291434Z 23016KT 28/12 A2981 RMK A01 T02790117  RH  037%=      5-min Rain = 0
KSM2 291435Z 24017KT 28/11 A2981 RMK A01 T02790114  RH  036%=      5-min Rain = 0
KSM2 291436Z 24017KT 28/11 A2981 RMK A01 T02790113  RH  036%=      5-min Rain = 0
KSM2 291437Z 23016KT 28/11 A2981 RMK A01 T02790111  RH  035%=      5-min Rain = 0
KSM2 291438Z 23014G19KT 28/12 A2981 RMK A01 T02790115  RH  036%=      5-min Rain = 0
KSM2 291439Z 24016KT 28/11 A2981 RMK A01 T02800114  RH  036%=      5-min Rain = 0
KSM2 291440Z 24016KT 28/11 A2981 RMK A01 T02810114  RH  035%=      5-min Rain = 0
KSM2 291441Z 24018KT 28/11 A2981 RMK A01 T02800111  RH  035%=      5-min Rain = 0
KSM2 291442Z 24016KT 28/11 A2981 RMK A01 T02790111  RH  035%=      5-min Rain = 0
KSM2 291443Z 24015KT 28/11 A2981 RMK A01 T02790112  RH  035%=      5-min Rain = 0
KSM2 291444Z 24015KT 28/11 A2981 RMK A01 T02810112  RH  035%=      5-min Rain = 0
KSM2 291445Z 24014KT 28/11 A2981 RMK A01 T02830112  RH  034%=      5-min Rain = 0
KSM2 291446Z 24015KT 28/11 A2981 RMK A01 T02840113  RH  035%=      5-min Rain = 0
KSM2 291447Z 23015KT 29/12 A2981 RMK A01 T02850115  RH  035%=      5-min Rain = 0
KSM2 291448Z 23016KT 29/11 A2981 RMK A01 T02850113  RH  034%=      5-min Rain = 0
KSM2 291449Z 24015KT 28/11 A2981 RMK A01 T02840112  RH  034%=      5-min Rain = 0
KSM2 291450Z 24017KT 29/11 A2981 RMK A01 T02850110  RH  034%=      5-min Rain = 0
KSM2 291451Z 24016KT 29/11 A2981 RMK A01 T02860111  RH  034%=      5-min Rain = 0
KSM2 291452Z 24016KT 29/11 A2981 RMK A01 T02860109  RH  033%=      5-min Rain = 0
KSM2 291453Z 24016KT 29/11 A2981 RMK A01 T02870108  RH  033%=      5-min Rain = 0
KSM2 291454Z 23014KT 29/11 A2981 RMK A01 T02870111  RH  034%=      5-min Rain = 0
KSM2 291455Z 23012KT 29/11 A2981 RMK A01 T02880114  RH  034%=      5-min Rain = 0
KSM2 291456Z 24016KT 29/11 A2981 RMK A01 T02910108  RH  032%=      5-min Rain = 0
KSM2 291457Z 24017KT 29/10 A2981 RMK A01 T02910103  RH  031%=      5-min Rain = 0
KSM2 291458Z 24016KT 29/10 A2981 RMK A01 T02900104  RH  032%=      5-min Rain = 0
KSM2 291459Z 24013KT 29/11 A2981 RMK A01 T02900107  RH  032%=      5-min Rain = 0
KSM2 291500Z 24015KT 29/10 A2981 RMK A01 T02930102  RH  030%=      5-min Rain = 0
KSM2 291501Z 24016KT 29/10 A2981 RMK A01 T02940102  RH  030%=      5-min Rain = 0
KSM2 291502Z 24014KT 29/10 A2981 RMK A01 T02930103  RH  031%=      5-min Rain = 0
KSM2 291503Z 24016KT 30/10 A2981 RMK A01 T02950103  RH  030%=      5-min Rain = 0
KSM2 291504Z 23012KT 30/10 A2981 RMK A01 T02960103  RH  030%=      5-min Rain = 0
KSM2 291505Z 23013KT 30/10 A2981 RMK A01 T02970104  RH  030%=      5-min Rain = 0
KSM2 291506Z 23016KT 30/10 A2981 RMK A01 T02980100  RH  029%=      5-min Rain = 0
KSM2 291507Z 24014KT 30/10 A2981 RMK A01 T02980100  RH  029%=      5-min Rain = 0
KSM2 291508Z 23016KT 30/10 A2981 RMK A01 T02980099  RH  029%=      5-min Rain = 0
KSM2 291509Z 23013KT 30/10 A2981 RMK A01 T02970100  RH  029%=      5-min Rain = 0
KSM2 291510Z 24012KT 30/10 A2981 RMK A01 T02970099  RH  029%=      5-min Rain = 0
KSM2 291511Z 23014KT 30/10 A2981 RMK A01 T02990102  RH  029%=      5-min Rain = 0
KSM2 291512Z 25012KT 30/10 A2981 RMK A01 T03010098  RH  028%=      5-min Rain = 0
KSM2 291513Z 24014KT 30/10 A2981 RMK A01 T03040098  RH  028%=      5-min Rain = 0
KSM2 291514Z 24016KT 31/09 A2981 RMK A01 T03050091  RH  027%=      5-min Rain = 0
KSM2 291515Z 24015KT 31/09 A2981 RMK A01 T03050087  RH  026%=      5-min Rain = 0
KSM2 291516Z 24015KT 30/09 A2981 RMK A01 T03040091  RH  027%=      5-min Rain = 0
KSM2 291517Z 24014KT 30/10 A2981 RMK A01 T03040095  RH  027%=      5-min Rain = 0
KSM2 291518Z 24015KT 31/09 A2981 RMK A01 T03050090  RH  026%=      5-min Rain = 0
KSM2 291519Z 24014KT 30/09 A2981 RMK A01 T03040091  RH  027%=      5-min Rain = 0
KSM2 291520Z 23013KT 30/10 A2981 RMK A01 T03030095  RH  027%=      5-min Rain = 0
KSM2 291521Z 23014KT 30/09 A2981 RMK A01 T03040093  RH  027%=      5-min Rain = 0
KSM2 291522Z 24014KT 30/09 A2981 RMK A01 T03040092  RH  027%=      5-min Rain = 0
KSM2 291523Z 25015KT 31/08 A2981 RMK A01 T03080084  RH  025%=      5-min Rain = 0
KSM2 291524Z 25015KT 31/08 A2981 RMK A01 T03100084  RH  025%=      5-min Rain = 0
KSM2 291525Z 24013KT 31/08 A2981 RMK A01 T03100083  RH  024%=      5-min Rain = 0
KSM2 291526Z 24014KT 31/08 A2981 RMK A01 T03100083  RH  024%=      5-min Rain = 0
KSM2 291527Z 24013KT 31/08 A2981 RMK A01 T03100081  RH  024%=      5-min Rain = 0
KSM2 291528Z 24015KT 31/08 A2981 RMK A01 T03090080  RH  024%=      5-min Rain = 0
KSM2 291529Z 24013KT 31/08 A2981 RMK A01 T03090080  RH  024%=      5-min Rain = 0
KSM2 291530Z 24014KT 31/08 A2981 RMK A01 T03090083  RH  024%=      5-min Rain = 0
KSM2 291531Z 24014KT 31/08 A2981 RMK A01 T03110081  RH  024%=      5-min Rain = 0
KSM2 291532Z 23012KT 31/08 A2981 RMK A01 T03100080  RH  024%=      5-min Rain = 0
KSM2 291533Z 23012KT 31/08 A2981 RMK A01 T03100082  RH  024%=      5-min Rain = 0
KSM2 291534Z 24015KT 31/08 A2981 RMK A01 T03100083  RH  024%=      5-min Rain = 0
KSM2 291535Z 23013KT 31/08 A2981 RMK A01 T03100082  RH  024%=      5-min Rain = 0
KSM2 291536Z 24013G18KT 31/07 A2981 RMK A01 T03100071  RH  023%=      5-min Rain = 0
KSM2 291537Z 25014KT 31/06 A2981 RMK A01 T03120060  RH  021%=      5-min Rain = 0
KSM2 291538Z 25013KT 31/07 A2981 RMK A01 T03140071  RH  022%=      5-min Rain = 0
KSM2 291539Z 24013KT 32/07 A2981 RMK A01 T03160066  RH  021%=      5-min Rain = 0
KSM2 291540Z 25012KT 32/07 A2981 RMK A01 T03170069  RH  021%=      5-min Rain = 0
KSM2 291541Z 24014KT 32/07 A2981 RMK A01 T03190073  RH  022%=      5-min Rain = 0
KSM2 291542Z 25013KT 32/07 A2981 RMK A01 T03180072  RH  022%=      5-min Rain = 0
KSM2 291543Z 25015KT 32/07 A2981 RMK A01 T03190072  RH  022%=      5-min Rain = 0
KSM2 291544Z 24016KT 32/07 A298 RMK A01 T03200068  RH  021%=      5-min Rain = 0
KSM2 291545Z 24013KT 32/07 A298 RMK A01 T03190066  RH  021%=      5-min Rain = 0
KSM2 291546Z 24012KT 32/07 A2981 RMK A01 T03200068  RH  021%=      5-min Rain = 0
KSM2 291547Z 25014KT 32/07 A2981 RMK A01 T03230066  RH  020%=      5-min Rain = 0
KSM2 291548Z 25012KT 32/07 A298 RMK A01 T03230068  RH  020%=      5-min Rain = 0
KSM2 291549Z 25014KT 33/06 A2981 RMK A01 T03260062  RH  019%=      5-min Rain = 0
KSM2 291550Z 25014KT 33/05 A2981 RMK A01 T03260054  RH  018%=      5-min Rain = 0
KSM2 291551Z 25012KT 32/05 A2981 RMK A01 T03240052  RH  018%=      5-min Rain = 0
KSM2 291552Z 24015KT 32/06 A2981 RMK A01 T03220059  RH  019%=      5-min Rain = 0
KSM2 291553Z 25014KT 32/06 A2981 RMK A01 T03210061  RH  020%=      5-min Rain = 0
KSM2 291554Z 25015KT 32/06 A2981 RMK A01 T03220061  RH  020%=      5-min Rain = 0
KSM2 291555Z 25013G18KT 32/06 A2981 RMK A01 T03240060  RH  019%=      5-min Rain = 0
KSM2 291556Z 24015KT 33/06 A298 RMK A01 T03250055  RH  018%=      5-min Rain = 0
KSM2 291557Z 25011KT 32/04 A2981 RMK A01 T03230043  RH  017%=      5-min Rain = 0
KSM2 291558Z 26012KT 32/05 A2981 RMK A01 T03220052  RH  018%=      5-min Rain = 0
KSM2 291559Z 24012KT 32/06 A2981 RMK A01 T03240056  RH  019%=      5-min Rain = 0
KSM2 291600Z 24014KT 33/06 A2981 RMK A01 T03250055  RH  018%=      5-min Rain = 0
KSM2 291601Z 25016KT 33/05 A2981 RMK A01 T03260048  RH  018%=      5-min Rain = 0
KSM2 291602Z 26013KT 32/05 A2981 RMK A01 T03230047  RH  018%=      5-min Rain = 0
KSM2 291603Z 26012KT 33/05 A2981 RMK A01 T03250049  RH  018%=      5-min Rain = 0
KSM2 291604Z 25012G19KT 33/06 A2981 RMK A01 T03270055  RH  018%=      5-min Rain = 0
KSM2 291605Z 25015KT 33/05 A2981 RMK A01 T03290046  RH  017%=      5-min Rain = 0
KSM2 291606Z 25012KT 33/05 A2981 RMK A01 T03250047  RH  017%=      5-min Rain = 0
KSM2 291607Z 25015KT 33/06 A2981 RMK A01 T03270056  RH  018%=      5-min Rain = 0
KSM2 291608Z 25014KT 33/05 A2981 RMK A01 T03310050  RH  017%=      5-min Rain = 0
KSM2 291609Z 25014KT 33/05 A2981 RMK A01 T03310048  RH  017%=      5-min Rain = 0
KSM2 291610Z 26013KT 33/04 A2981 RMK A01 T03280044  RH  017%=      5-min Rain = 0
KSM2 291611Z 27016KT 33/04 A2981 RMK A01 T03280044  RH  017%=      5-min Rain = 0
KSM2 291612Z 26015KT 33/04 A2981 RMK A01 T03270043  RH  017%=      5-min Rain = 0
KSM2 291613Z 25014KT 33/05 A2981 RMK A01 T03290045  RH  017%=      5-min Rain = 0
KSM2 291614Z 25014KT 33/04 A2981 RMK A01 T03290043  RH  017%=      5-min Rain = 0
KSM2 291615Z 26013KT 33/05 A2981 RMK A01 T03290048  RH  017%=      5-min Rain = 0
KSM2 291616Z 26014KT 33/04 A2981 RMK A01 T03300044  RH  017%=      5-min Rain = 0
KSM2 291617Z 25016KT 33/05 A2981 RMK A01 T03290045  RH  017%=      5-min Rain = 0
KSM2 291618Z 25013KT 33/04 A2981 RMK A01 T03280044  RH  017%=      5-min Rain = 0
KSM2 291619Z 25014KT 33/05 A2981 RMK A01 T03270048  RH  017%=      5-min Rain = 0
KSM2 291620Z 25012KT 33/05 A2981 RMK A01 T03290050  RH  017%=      5-min Rain = 0
KSM2 291621Z 25011KT 33/05 A2981 RMK A01 T03300051  RH  017%=      5-min Rain = 0
KSM2 291622Z 25011KT 33/05 A2981 RMK A01 T03300049  RH  017%=      5-min Rain = 0
KSM2 291623Z 25015KT 33/05 A2981 RMK A01 T03300050  RH  017%=      5-min Rain = 0
KSM2 291624Z 25016KT 33/05 A2981 RMK A01 T03320047  RH  017%=      5-min Rain = 0
KSM2 291625Z 26011KT 33/05 A2981 RMK A01 T03320048  RH  017%=      5-min Rain = 0
KSM2 291626Z 25010KT 33/05 A2981 RMK A01 T03320048  RH  017%=      5-min Rain = 0
KSM2 291627Z 25013KT 33/05 A2981 RMK A01 T03320052  RH  017%=      5-min Rain = 0
KSM2 291628Z 25012KT 33/05 A2981 RMK A01 T03320053  RH  017%=      5-min Rain = 0
KSM2 291629Z 26013KT 33/05 A2981 RMK A01 T03320054  RH  018%=      5-min Rain = 0
KSM2 291630Z 27016KT 34/05 A2981 RMK A01 T03350048  RH  017%=      5-min Rain = 0
KSM2 291631Z 27015KT 33/04 A2981 RMK A01 T03340043  RH  016%=      5-min Rain = 0
KSM2 291632Z 25014KT 33/05 A2981 RMK A01 T03320051  RH  017%=      5-min Rain = 0
KSM2 291633Z 24013KT 34/05 A2981 RMK A01 T03370051  RH  017%=      5-min Rain = 0
KSM2 291634Z 25016KT 34/05 A2981 RMK A01 T03360046  RH  016%=      5-min Rain = 0
KSM2 291635Z 26014KT 34/05 A2981 RMK A01 T03350051  RH  017%=      5-min Rain = 0
KSM2 291636Z 25012KT 33/05 A2981 RMK A01 T03340050  RH  017%=      5-min Rain = 0
KSM2 291637Z 25014KT 33/05 A2981 RMK A01 T03340048  RH  017%=      5-min Rain = 0
KSM2 291638Z 25014KT 34/05 A2981 RMK A01 T03350048  RH  017%=      5-min Rain = 0
KSM2 291639Z 26015KT 34/05 A2981 RMK A01 T03360046  RH  016%=      5-min Rain = 0
KSM2 291640Z 26016KT 34/05 A2981 RMK A01 T03370047  RH  016%=      5-min Rain = 0
KSM2 291641Z 27013KT 34/05 A2981 RMK A01 T03380047  RH  016%=      5-min Rain = 0
KSM2 291642Z 27016KT 34/04 A2981 RMK A01 T03370044  RH  016%=      5-min Rain = 0
KSM2 291643Z 28014KT 34/04 A2981 RMK A01 T03370044  RH  016%=      5-min Rain = 0
KSM2 291644Z 28014KT 34/05 A2981 RMK A01 T03390045  RH  016%=      5-min Rain = 0
KSM2 291645Z 26011KT 34/05 A2981 RMK A01 T03410050  RH  016%=      5-min Rain = 0
KSM2 291646Z 25013KT 34/05 A2981 RMK A01 T03390046  RH  016%=      5-min Rain = 0
KSM2 291647Z 24014KT 34/05 A2981 RMK A01 T03370048  RH  016%=      5-min Rain = 0
KSM2 291648Z 26012G18KT 34/05 A2981 RMK A01 T03370051  RH  017%=      5-min Rain = 0
KSM2 291649Z 26016KT 34/05 A2981 RMK A01 T03390048  RH  016%=      5-min Rain = 0
KSM2 291650Z 26016KT 34/05 A2981 RMK A01 T03400046  RH  016%=      5-min Rain = 0
KSM2 291651Z 25013KT 34/05 A2981 RMK A01 T03380045  RH  016%=      5-min Rain = 0
KSM2 291652Z 26013KT 34/05 A2981 RMK A01 T03370048  RH  016%=      5-min Rain = 0
KSM2 291653Z 25011KT 34/05 A2981 RMK A01 T03380048  RH  016%=      5-min Rain = 0
KSM2 291654Z 25010KT 34/05 A2981 RMK A01 T03380046  RH  016%=      5-min Rain = 0
KSM2 291655Z 25016KT 34/05 A2981 RMK A01 T03370049  RH  017%=      5-min Rain = 0
KSM2 291656Z 26015KT 34/05 A2981 RMK A01 T03400049  RH  016%=      5-min Rain = 0
KSM2 291657Z 27015KT 34/04 A2981 RMK A01 T03390044  RH  016%=      5-min Rain = 0
KSM2 291658Z 26016KT 34/04 A2981 RMK A01 T03380044  RH  016%=      5-min Rain = 0
KSM2 291659Z 26014KT 34/05 A2982 RMK A01 T03380047  RH  016%=      5-min Rain = 0
KSM2 291700Z 26013KT 34/04 A2982 RMK A01 T03390042  RH  016%=      5-min Rain = 0
KSM2 291701Z 26011KT 34/04 A2981 RMK A01 T03380044  RH  016%=      5-min Rain = 0
KSM2 291702Z 27009KT 34/05 A2981 RMK A01 T03370045  RH  016%=      5-min Rain = 0
KSM2 291703Z 26011G18KT 34/05 A2981 RMK A01 T03380049  RH  016%=      5-min Rain = 0
KSM2 291704Z 25016KT 34/05 A2981 RMK A01 T03410048  RH  016%=      5-min Rain = 0
KSM2 291705Z 26013KT 34/05 A2981 RMK A01 T03410049  RH  016%=      5-min Rain = 0
KSM2 291706Z 26014KT 34/05 A2981 RMK A01 T03420046  RH  016%=      5-min Rain = 0
KSM2 291707Z 25012KT 34/05 A2981 RMK A01 T03420050  RH  016%=      5-min Rain = 0
KSM2 291708Z 25014G20KT 34/05 A2981 RMK A01 T03420045  RH  016%=      5-min Rain = 0
KSM2 291709Z 27010KT 34/04 A2981 RMK A01 T03410043  RH  016%=      5-min Rain = 0
KSM2 291710Z 27009KT 34/05 A2981 RMK A01 T03400045  RH  016%=      5-min Rain = 0
KSM2 291711Z 25011KT 34/05 A2981 RMK A01 T03390047  RH  016%=      5-min Rain = 0
KSM2 291712Z 25011KT 34/05 A2981 RMK A01 T03390046  RH  016%=      5-min Rain = 0
KSM2 291713Z 24011KT 34/05 A2981 RMK A01 T03390050  RH  016%=      5-min Rain = 0
KSM2 291714Z 25015KT 34/05 A2981 RMK A01 T03420050  RH  016%=      5-min Rain = 0
KSM2 291715Z 25013KT 35/05 A2981 RMK A01 T03470049  RH  016%=      5-min Rain = 0
KSM2 291716Z 24012G18KT 35/05 A2981 RMK A01 T03480050  RH  016%=      5-min Rain = 0
KSM2 291717Z 25016KT 35/05 A2981 RMK A01 T03470045  RH  015%=      5-min Rain = 0
KSM2 291718Z 25013KT 34/04 A2981 RMK A01 T03420040  RH  015%=      5-min Rain = 0
KSM2 291719Z 25009KT 34/05 A2981 RMK A01 T03410050  RH  016%=      5-min Rain = 0
KSM2 291720Z 23017KT 34/05 A2981 RMK A01 T03430048  RH  016%=      5-min Rain = 0
KSM2 291721Z 26013KT 34/05 A2981 RMK A01 T03410046  RH  016%=      5-min Rain = 0
KSM2 291722Z 25009KT 34/05 A2981 RMK A01 T03410047  RH  016%=      5-min Rain = 0
KSM2 291723Z 26008KT 34/05 A2981 RMK A01 T03400045  RH  016%=      5-min Rain = 0
KSM2 291724Z 27012KT 34/05 A2981 RMK A01 T03400048  RH  016%=      5-min Rain = 0
KSM2 291725Z 26011KT 34/04 A2981 RMK A01 T03430044  RH  015%=      5-min Rain = 0
KSM2 291726Z 25010KT 34/05 A2981 RMK A01 T03440048  RH  016%=      5-min Rain = 0
KSM2 291727Z 25008G13KT 34/05 A2981 RMK A01 T03420048  RH  016%=      5-min Rain = 0
KSM2 291728Z 25014KT 35/06 A2981 RMK A01 T03450057  RH  017%=      5-min Rain = 0
KSM2 291729Z 25016KT 35/05 A2981 RMK A01 T03490048  RH  015%=      5-min Rain = 0
KSM2 291730Z 25014KT 35/05 A2981 RMK A01 T03470046  RH  015%=      5-min Rain = 0
KSM2 291731Z 26014KT 35/05 A2981 RMK A01 T03470045  RH  015%=      5-min Rain = 0
KSM2 291732Z 26011KT 35/05 A2981 RMK A01 T03470046  RH  015%=      5-min Rain = 0
KSM2 291733Z 27012KT 35/05 A2981 RMK A01 T03480047  RH  015%=      5-min Rain = 0
KSM2 291734Z 27010KT 35/04 A2981 RMK A01 T03500043  RH  015%=      5-min Rain = 0
KSM2 291735Z 26008KT 35/04 A2981 RMK A01 T03460039  RH  015%=      5-min Rain = 0
KSM2 291736Z 27010KT 34/04 A2981 RMK A01 T03430044  RH  015%=      5-min Rain = 0
KSM2 291737Z 26009G14KT 34/04 A2981 RMK A01 T03440044  RH  015%=      5-min Rain = 0
KSM2 291738Z 25017KT 35/05 A2981 RMK A01 T03450049  RH  016%=      5-min Rain = 0
KSM2 291739Z 23014KT 35/05 A2981 RMK A01 T03470046  RH  015%=      5-min Rain = 0
KSM2 291740Z 23012KT 34/05 A2981 RMK A01 T03440046  RH  016%=      5-min Rain = 0
KSM2 291741Z 24013KT 34/04 A2981 RMK A01 T03420044  RH  016%=      5-min Rain = 0
KSM2 291742Z 23015KT 34/05 A2981 RMK A01 T03440048  RH  016%=      5-min Rain = 0
KSM2 291743Z 24014KT 35/05 A2981 RMK A01 T03480050  RH  016%=      5-min Rain = 0
KSM2 291744Z 25011KT 35/04 A2981 RMK A01 T03510044  RH  015%=      5-min Rain = 0
KSM2 291745Z 24013KT 35/04 A2981 RMK A01 T03510043  RH  015%=      5-min Rain = 0
KSM2 291746Z 24014KT 35/04 A2981 RMK A01 T03490039  RH  014%=      5-min Rain = 0
KSM2 291747Z 23011KT 35/04 A2981 RMK A01 T03470042  RH  015%=      5-min Rain = 0
KSM2 291748Z 23010KT 34/04 A2981 RMK A01 T03440037  RH  015%=      5-min Rain = 0
KSM2 291749Z 21010G15KT 34/05 A2981 RMK A01 T03410049  RH  016%=      5-min Rain = 0
KSM2 291750Z 22012KT 34/06 A2981 RMK A01 T03420059  RH  017%=      5-min Rain = 0
KSM2 291751Z 23011KT 35/05 A2981 RMK A01 T03460049  RH  016%=      5-min Rain = 0
KSM2 291752Z 23011KT 35/05 A2981 RMK A01 T03480054  RH  016%=      5-min Rain = 0
KSM2 291753Z 22013G18KT 35/05 A2981 RMK A01 T03480052  RH  016%=      5-min Rain = 0
KSM2 291754Z 23015KT 35/05 A2981 RMK A01 T03470047  RH  016%=      5-min Rain = 0
KSM2 291755Z 23013G19KT 35/05 A2981 RMK A01 T03470046  RH  015%=      5-min Rain = 0
KSM2 291756Z 23016KT 35/04 A2981 RMK A01 T03490042  RH  015%=      5-min Rain = 0
KSM2 291757Z 22011KT 35/04 A2981 RMK A01 T03450039  RH  015%=      5-min Rain = 0
KSM2 291758Z 22013KT 34/05 A2981 RMK A01 T03430048  RH  016%=      5-min Rain = 0
KSM2 291759Z 22013KT 34/05 A2981 RMK A01 T03430049  RH  016%=      5-min Rain = 0
KSM2 291800Z 21009KT 34/05 A2981 RMK A01 T03420050  RH  016%=      5-min Rain = 0
KSM2 291801Z 23011KT 34/05 A2981 RMK A01 T03410049  RH  016%=      5-min Rain = 0
KSM2 291802Z 24011KT 34/05 A2981 RMK A01 T03440048  RH  016%=      5-min Rain = 0
KSM2 291803Z 23013G19KT 35/05 A2981 RMK A01 T03460048  RH  016%=      5-min Rain = 0
KSM2 291804Z 23015KT 35/05 A2981 RMK A01 T03490047  RH  015%=      5-min Rain = 0
KSM2 291805Z 22014KT 35/06 A2981 RMK A01 T03480055  RH  016%=      5-min Rain = 0
KSM2 291806Z 23013KT 34/05 A2981 RMK A01 T03430048  RH  016%=      5-min Rain = 0
KSM2 291807Z 23014KT 34/05 A2981 RMK A01 T03430046  RH  016%=      5-min Rain = 0
KSM2 291808Z 23013G19KT 35/05 A2981 RMK A01 T03460049  RH  016%=      5-min Rain = 0
KSM2 291809Z 24013KT 35/04 A2981 RMK A01 T03450043  RH  015%=      5-min Rain = 0
KSM2 291810Z 22012KT 35/06 A2981 RMK A01 T03460056  RH  017%=      5-min Rain = 0
KSM2 291811Z 22016KT 35/05 A2981 RMK A01 T03470052  RH  016%=      5-min Rain = 0
KSM2 291812Z 21015KT 35/05 A2981 RMK A01 T03450053  RH  016%=      5-min Rain = 0
KSM2 291813Z 21015KT 34/05 A298 RMK A01 T03440053  RH  016%=      5-min Rain = 0
KSM2 291814Z 21017KT 34/05 A298 RMK A01 T03430049  RH  016%=      5-min Rain = 0
KSM2 291815Z 20012G17KT 34/05 A298 RMK A01 T03430052  RH  016%=      5-min Rain = 0
KSM2 291816Z 20010KT 34/05 A298 RMK A01 T03420052  RH  016%=      5-min Rain = 0
KSM2 291817Z 21013KT 35/06 A298 RMK A01 T03460059  RH  017%=      5-min Rain = 0
KSM2 291818Z 20010KT 35/06 A298 RMK A01 T03490059  RH  017%=      5-min Rain = 0
KSM2 291819Z 22011KT 35/06 A298 RMK A01 T03490062  RH  017%=      5-min Rain = 0
KSM2 291820Z 24016KT 35/05 A298 RMK A01 T03510051  RH  015%=      5-min Rain = 0
KSM2 291821Z 23017KT 35/05 A298 RMK A01 T03530048  RH  015%=      5-min Rain = 0
KSM2 291822Z 24017KT 35/05 A298 RMK A01 T03510047  RH  015%=      5-min Rain = 0
KSM2 291823Z 24018KT 35/05 A2981 RMK A01 T03510047  RH  015%=      5-min Rain = 0
KSM2 291824Z 23015KT 35/04 A2981 RMK A01 T03500044  RH  015%=      5-min Rain = 0
KSM2 291825Z 23012KT 35/05 A2981 RMK A01 T03490049  RH  015%=      5-min Rain = 0
KSM2 291826Z 22007KT 35/05 A2981 RMK A01 T03470050  RH  016%=      5-min Rain = 0
KSM2 291827Z 24005KT 34/05 A2981 RMK A01 T03440045  RH  015%=      5-min Rain = 0
KSM2 291828Z 24006KT 35/05 A298 RMK A01 T03460050  RH  016%=      5-min Rain = 0
KSM2 291829Z 23006KT 35/05 A298 RMK A01 T03480048  RH  015%=      5-min Rain = 0
KSM2 291830Z 23009KT 35/06 A298 RMK A01 T03490060  RH  017%=      5-min Rain = 0
KSM2 291831Z 22015KT 35/06 A298 RMK A01 T03510061  RH  017%=      5-min Rain = 0
KSM2 291832Z 21014KT 35/06 A298 RMK A01 T03510055  RH  016%=      5-min Rain = 0
KSM2 291833Z 20013KT 35/05 A298 RMK A01 T03480050  RH  016%=      5-min Rain = 0
KSM2 291834Z 21014KT 35/05 A298 RMK A01 T03450052  RH  016%=      5-min Rain = 0
KSM2 291835Z 22011KT 35/06 A298 RMK A01 T03470058  RH  017%=      5-min Rain = 0
KSM2 291836Z 22011KT 35/05 A298 RMK A01 T03500054  RH  016%=      5-min Rain = 0
KSM2 291837Z 22012KT 35/05 A298 RMK A01 T03510054  RH  016%=      5-min Rain = 0
KSM2 291838Z 22011KT 35/06 A298 RMK A01 T03480058  RH  017%=      5-min Rain = 0
KSM2 291839Z 22012KT 35/06 A298 RMK A01 T03480057  RH  016%=      5-min Rain = 0
KSM2 291840Z 21011KT 35/05 A298 RMK A01 T03480050  RH  016%=      5-min Rain = 0
KSM2 291841Z 22009KT 35/05 A298 RMK A01 T03450047  RH  016%=      5-min Rain = 0
KSM2 291842Z 20007KT 34/05 A298 RMK A01 T03430052  RH  016%=      5-min Rain = 0
KSM2 291843Z 18009KT 34/05 A298 RMK A01 T03440049  RH  016%=      5-min Rain = 0
KSM2 291844Z 21007KT 34/05 A298 RMK A01 T03440047  RH  016%=      5-min Rain = 0
KSM2 291845Z 20009G15KT 34/05 A298 RMK A01 T03440054  RH  016%=      5-min Rain = 0
KSM2 291846Z 20018G23KT 35/06 A298 RMK A01 T03500058  RH  016%=      5-min Rain = 0
KSM2 291847Z 21015KT 35/04 A298 RMK A01 T03510044  RH  015%=      5-min Rain = 0
KSM2 291848Z 21013KT 35/05 A298 RMK A01 T03490051  RH  016%=      5-min Rain = 0
KSM2 291849Z 22012KT 35/05 A298 RMK A01 T03480050  RH  016%=      5-min Rain = 0
KSM2 291850Z 22010KT 35/06 A298 RMK A01 T03480055  RH  016%=      5-min Rain = 0
KSM2 291851Z 24015G20KT 35/06 A298 RMK A01 T03500055  RH  016%=      5-min Rain = 0
KSM2 291852Z 25017KT 35/05 A298 RMK A01 T03540045  RH  015%=      5-min Rain = 0
KSM2 291853Z 23017KT 35/05 A298 RMK A01 T03540046  RH  015%=      5-min Rain = 0
KSM2 291854Z 25014G22KT 35/05 A298 RMK A01 T03510047  RH  015%=      5-min Rain = 0
KSM2 291855Z 26013G18KT 35/04 A298 RMK A01 T03510043  RH  015%=      5-min Rain = 0
KSM2 291856Z 25012G17KT 35/04 A298 RMK A01 T03520044  RH  015%=      5-min Rain = 0
KSM2 291857Z 27012KT 35/04 A298 RMK A01 T03520041  RH  014%=      5-min Rain = 0
KSM2 291858Z 26012KT 35/04 A298 RMK A01 T03520040  RH  014%=      5-min Rain = 0
KSM2 291859Z 25013KT 35/05 A298 RMK A01 T03520045  RH  015%=      5-min Rain = 0
KSM2 291900Z 25011KT 36/05 A298 RMK A01 T03580052  RH  015%=      5-min Rain = 0
KSM2 291901Z 24010KT 36/05 A298 RMK A01 T03590048  RH  015%=      5-min Rain = 0
KSM2 291902Z 25012G19KT 36/05 A2979 RMK A01 T03580053  RH  015%=      5-min Rain = 0
KSM2 291903Z 26017KT 36/05 A2979 RMK A01 T03610048  RH  014%=      5-min Rain = 0
KSM2 291904Z 26014KT 36/04 A2979 RMK A01 T03610044  RH  014%=      5-min Rain = 0
KSM2 291905Z 24014KT 36/05 A2979 RMK A01 T03600050  RH  015%=      5-min Rain = 0
KSM2 291906Z 25014KT 36/05 A2979 RMK A01 T03610048  RH  014%=      5-min Rain = 0
KSM2 291907Z 25012KT 36/05 A2979 RMK A01 T03600046  RH  014%=      5-min Rain = 0
KSM2 291908Z 26010KT 36/05 A2979 RMK A01 T03580045  RH  014%=      5-min Rain = 0
KSM2 291909Z 25008KT 36/05 A2979 RMK A01 T03570047  RH  015%=      5-min Rain = 0
KSM2 291910Z 24010KT 36/05 A2979 RMK A01 T03570046  RH  015%=      5-min Rain = 0
KSM2 291911Z 24014G21KT 36/05 A2979 RMK A01 T03560046  RH  015%=      5-min Rain = 0
KSM2 291912Z 23014KT 36/05 A2979 RMK A01 T03570048  RH  015%=      5-min Rain = 0
KSM2 291913Z 23011KT 36/05 A2979 RMK A01 T03560052  RH  015%=      5-min Rain = 0
KSM2 291914Z 25013KT 36/05 A2979 RMK A01 T03550049  RH  015%=      5-min Rain = 0
KSM2 291915Z 24010KT 36/05 A2979 RMK A01 T03560048  RH  015%=      5-min Rain = 0
KSM2 291916Z 24010KT 36/05 A2979 RMK A01 T03570048  RH  015%=      5-min Rain = 0
KSM2 291917Z 23017KT 36/05 A2979 RMK A01 T03580048  RH  015%=      5-min Rain = 0
KSM2 291918Z 22013G19KT 36/05 A2979 RMK A01 T03560051  RH  015%=      5-min Rain = 0
KSM2 291919Z 22016KT 36/05 A2979 RMK A01 T03550051  RH  015%=      5-min Rain = 0
KSM2 291920Z 22016G21KT 36/05 A2979 RMK A01 T03560050  RH  015%=      5-min Rain = 0
KSM2 291921Z 21018KT 36/05 A2979 RMK A01 T03560051  RH  015%=      5-min Rain = 0
KSM2 291922Z 21017KT 35/05 A2979 RMK A01 T03530047  RH  015%=      5-min Rain = 0
KSM2 291923Z 20015KT 35/06 A2979 RMK A01 T03520055  RH  016%=      5-min Rain = 0
KSM2 291924Z 21013KT 35/05 A2979 RMK A01 T03530050  RH  015%=      5-min Rain = 0
KSM2 291925Z 20010KT 35/05 A2979 RMK A01 T03520047  RH  015%=      5-min Rain = 0
KSM2 291926Z 19011KT 35/05 A2979 RMK A01 T03500047  RH  015%=      5-min Rain = 0
KSM2 291927Z 22006KT 35/04 A2979 RMK A01 T03480041  RH  015%=      5-min Rain = 0
KSM2 291928Z 23005KT 35/05 A2979 RMK A01 T03480048  RH  015%=      5-min Rain = 0
KSM2 291929Z 23006KT 35/04 A2979 RMK A01 T03490044  RH  015%=      5-min Rain = 0
KSM2 291930Z 20010KT 35/07 A2979 RMK A01 T03540065  RH  017%=      5-min Rain = 0
KSM2 291931Z 19014KT 36/06 A2979 RMK A01 T03580055  RH  015%=      5-min Rain = 0
KSM2 291932Z 19011KT 36/06 A2979 RMK A01 T03560055  RH  016%=      5-min Rain = 0
KSM2 291933Z 22011KT 36/05 A2979 RMK A01 T03560054  RH  015%=      5-min Rain = 0
KSM2 291934Z 23012G19KT 36/05 A2978 RMK A01 T03560050  RH  015%=      5-min Rain = 0
KSM2 291935Z 24014KT 36/05 A2978 RMK A01 T03560048  RH  015%=      5-min Rain = 0
KSM2 291936Z 24012KT 36/05 A2979 RMK A01 T03550047  RH  015%=      5-min Rain = 0
KSM2 291937Z 25008G13KT 36/05 A2978 RMK A01 T03550047  RH  015%=      5-min Rain = 0
KSM2 291938Z 24006KT 36/05 A2978 RMK A01 T03560047  RH  015%=      5-min Rain = 0
KSM2 291939Z 21007KT 36/05 A2978 RMK A01 T03550046  RH  015%=      5-min Rain = 0
KSM2 291940Z 22007KT 35/05 A2978 RMK A01 T03530052  RH  015%=      5-min Rain = 0
KSM2 291941Z 23007KT 35/05 A2978 RMK A01 T03530052  RH  015%=      5-min Rain = 0
KSM2 291942Z 25009G17KT 36/06 A2978 RMK A01 T03570059  RH  016%=      5-min Rain = 0
KSM2 291943Z 24016KT 36/05 A2978 RMK A01 T03620050  RH  015%=      5-min Rain = 0
KSM2 291944Z 25012KT 36/05 A2978 RMK A01 T03600048  RH  014%=      5-min Rain = 0
KSM2 291945Z 25012KT 36/05 A2978 RMK A01 T03600049  RH  015%=      5-min Rain = 0
KSM2 291946Z 25010KT 36/05 A2978 RMK A01 T03590049  RH  015%=      5-min Rain = 0
KSM2 291947Z 25010KT 36/05 A2978 RMK A01 T03610051  RH  015%=      5-min Rain = 0
KSM2 291948Z 23008KT 36/05 A2978 RMK A01 T03610049  RH  014%=      5-min Rain = 0
KSM2 291949Z 24008KT 36/05 A2978 RMK A01 T03590053  RH  015%=      5-min Rain = 0
KSM2 291950Z 23007KT 36/05 A2978 RMK A01 T03600052  RH  015%=      5-min Rain = 0
KSM2 291951Z 22007KT 36/06 A2978 RMK A01 T03600061  RH  016%=      5-min Rain = 0
KSM2 291952Z 25005KT 36/05 A2978 RMK A01 T03610054  RH  015%=      5-min Rain = 0
KSM2 291953Z 28010G16KT 36/05 A2977 RMK A01 T03630054  RH  015%=      5-min Rain = 0
KSM2 291954Z 24014KT 37/05 A2978 RMK A01 T03660054  RH  015%=      5-min Rain = 0
KSM2 291955Z 21017KT 37/06 A2978 RMK A01 T03660057  RH  015%=      5-min Rain = 0
KSM2 291956Z 21016KT 36/06 A2978 RMK A01 T03600055  RH  015%=      5-min Rain = 0
KSM2 291957Z 21016KT 36/06 A2978 RMK A01 T03570057  RH  016%=      5-min Rain = 0
KSM2 291958Z 20016G21KT 36/06 A2978 RMK A01 T03580060  RH  016%=      5-min Rain = 0
KSM2 291959Z 22015KT 36/06 A2978 RMK A01 T03600060  RH  016%=      5-min Rain = 0
KSM2 292000Z 22017KT 36/06 A2978 RMK A01 T03630061  RH  016%=      5-min Rain = 0
KSM2 292001Z 23018KT 37/06 A2978 RMK A01 T03660055  RH  015%=      5-min Rain = 0
KSM2 292002Z 23015KT 36/06 A2978 RMK A01 T03640055  RH  015%=      5-min Rain = 0
KSM2 292003Z 22014KT 36/06 A2978 RMK A01 T03630057  RH  015%=      5-min Rain = 0
KSM2 292004Z 25015KT 36/05 A2978 RMK A01 T03640054  RH  015%=      5-min Rain = 0
KSM2 292005Z 25012KT 36/05 A2978 RMK A01 T03640048  RH  014%=      5-min Rain = 0
KSM2 292006Z 24010KT 36/06 A2978 RMK A01 T03610056  RH  015%=      5-min Rain = 0
KSM2 292007Z 24015KT 36/06 A2978 RMK A01 T03610062  RH  016%=      5-min Rain = 0
KSM2 292008Z 25017KT 36/06 A2978 RMK A01 T03620062  RH  016%=      5-min Rain = 0
KSM2 292009Z 25014KT 36/06 A2978 RMK A01 T03630060  RH  016%=      5-min Rain = 0
KSM2 292010Z 25011KT 36/06 A2978 RMK A01 T03630060  RH  016%=      5-min Rain = 0
KSM2 292011Z 25013KT 36/06 A2978 RMK A01 T03630063  RH  016%=      5-min Rain = 0
KSM2 292012Z 24010KT 36/06 A2977 RMK A01 T03630063  RH  016%=      5-min Rain = 0
KSM2 292013Z 21011KT 36/07 A2978 RMK A01 T03640074  RH  017%=      5-min Rain = 0
KSM2 292014Z 20015G20KT 37/08 A2978 RMK A01 T03650075  RH  017%=      5-min Rain = 0
KSM2 292015Z 20016KT 36/07 A2978 RMK A01 T03630071  RH  017%=      5-min Rain = 0
KSM2 292016Z 19013KT 36/07 A2978 RMK A01 T03620070  RH  017%=      5-min Rain = 0
KSM2 292017Z 18011KT 36/07 A2977 RMK A01 T03600071  RH  017%=      5-min Rain = 0
KSM2 292018Z 20012G17KT 36/07 A2977 RMK A01 T03600073  RH  017%=      5-min Rain = 0
KSM2 292019Z 21013KT 37/07 A2977 RMK A01 T03650072  RH  017%=      5-min Rain = 0
KSM2 292020Z 19014G19KT 37/07 A2977 RMK A01 T03650069  RH  016%=      5-min Rain = 0
KSM2 292021Z 23013KT 37/07 A2977 RMK A01 T03650072  RH  017%=      5-min Rain = 0
KSM2 292022Z 25020G26KT 37/07 A2977 RMK A01 T03710070  RH  016%=      5-min Rain = 0
KSM2 292023Z 25022KT 37/07 A2977 RMK A01 T03730065  RH  015%=      5-min Rain = 0
KSM2 292024Z 24016KT 37/06 A2977 RMK A01 T03670064  RH  016%=      5-min Rain = 0
KSM2 292025Z 24014KT 37/07 A2978 RMK A01 T03650074  RH  017%=      5-min Rain = 0
KSM2 292026Z 25014KT 37/07 A2977 RMK A01 T03690070  RH  016%=      5-min Rain = 0
KSM2 292027Z 26016KT 37/07 A2977 RMK A01 T03700069  RH  016%=      5-min Rain = 0
KSM2 292028Z 25013KT 37/07 A2977 RMK A01 T03680066  RH  016%=      5-min Rain = 0
KSM2 292029Z 26016KT 37/07 A2977 RMK A01 T03670071  RH  016%=      5-min Rain = 0
KSM2 292030Z 25016KT 37/07 A2977 RMK A01 T03680068  RH  016%=      5-min Rain = 0
KSM2 292031Z 23018KT 36/07 A2977 RMK A01 T03640066  RH  016%=      5-min Rain = 0
KSM2 292032Z 21017KT 36/07 A2977 RMK A01 T03620073  RH  017%=      5-min Rain = 0
KSM2 292033Z 19020KT 36/07 A2977 RMK A01 T03640074  RH  017%=      5-min Rain = 0
KSM2 292034Z 19019G24KT 36/07 A2977 RMK A01 T03630072  RH  017%=      5-min Rain = 0
KSM2 292035Z 20019G26KT 36/07 A2977 RMK A01 T03630073  RH  017%=      5-min Rain = 0
KSM2 292036Z 20018G24KT 36/07 A2977 RMK A01 T03620072  RH  017%=      5-min Rain = 0
KSM2 292037Z 20013G18KT 36/07 A2977 RMK A01 T03580070  RH  017%=      5-min Rain = 0
KSM2 292038Z 21012KT 36/07 A2977 RMK A01 T03560072  RH  017%=      5-min Rain = 0
KSM2 292039Z 19011KT 36/07 A2977 RMK A01 T03560070  RH  017%=      5-min Rain = 0
KSM2 292040Z 20014G22KT 36/08 A2977 RMK A01 T03580076  RH  018%=      5-min Rain = 0
KSM2 292041Z 22017G23KT 36/07 A2977 RMK A01 T03610071  RH  017%=      5-min Rain = 0
KSM2 292042Z 21016G22KT 36/08 A2977 RMK A01 T03610078  RH  018%=      5-min Rain = 0
KSM2 292043Z 21018KT 36/07 A2977 RMK A01 T03630070  RH  017%=      5-min Rain = 0
KSM2 292044Z 19015KT 36/07 A2977 RMK A01 T03620073  RH  017%=      5-min Rain = 0
KSM2 292045Z 20016KT 36/07 A2977 RMK A01 T03640074  RH  017%=      5-min Rain = 0
KSM2 292046Z 24018G26KT 36/07 A2977 RMK A01 T03630070  RH  017%=      5-min Rain = 0
KSM2 292047Z 25021KT 37/07 A2977 RMK A01 T03660070  RH  016%=      5-min Rain = 0
KSM2 292048Z 24021G26KT 37/07 A2977 RMK A01 T03710070  RH  016%=      5-min Rain = 0
KSM2 292049Z 23018KT 37/07 A2977 RMK A01 T03690072  RH  016%=      5-min Rain = 0
KSM2 292050Z 23015KT 37/07 A2977 RMK A01 T03650069  RH  016%=      5-min Rain = 0
KSM2 292051Z 22018KT 36/07 A2977 RMK A01 T03630071  RH  017%=      5-min Rain = 0
KSM2 292052Z 22016G21KT 36/07 A2977 RMK A01 T03630073  RH  017%=      5-min Rain = 0
KSM2 292053Z 20016G22KT 36/07 A2977 RMK A01 T03610071  RH  017%=      5-min Rain = 0
KSM2 292054Z 22015KT 36/07 A2977 RMK A01 T03600072  RH  017%=      5-min Rain = 0
KSM2 292055Z 22019KT 36/07 A2977 RMK A01 T03590072  RH  017%=      5-min Rain = 0
KSM2 292056Z 21017KT 36/07 A2977 RMK A01 T03590072  RH  017%=      5-min Rain = 0
KSM2 292057Z 20018KT 36/07 A2977 RMK A01 T03580072  RH  017%=      5-min Rain = 0
KSM2 292058Z 22018G24KT 36/07 A2977 RMK A01 T03580070  RH  017%=      5-min Rain = 0
KSM2 292059Z 23020KT 36/07 A2977 RMK A01 T03600069  RH  017%=      5-min Rain = 0
KSM2 292100Z 23015KT 36/07 A2977 RMK A01 T03630069  RH  017%=      5-min Rain = 0
KSM2 292101Z 23013G18KT 37/07 A2977 RMK A01 T03650071  RH  017%=      5-min Rain = 0
KSM2 292102Z 23019G28KT 37/07 A2977 RMK A01 T03670074  RH  017%=      5-min Rain = 0
KSM2 292103Z 23018G25KT 37/07 A2977 RMK A01 T03680073  RH  017%=      5-min Rain = 0
KSM2 292104Z 23022G28KT 37/07 A2977 RMK A01 T03710073  RH  016%=      5-min Rain = 0
KSM2 292105Z 24022KT 37/06 A2977 RMK A01 T03660064  RH  016%=      5-min Rain = 0
KSM2 292106Z 24018KT 36/06 A2977 RMK A01 T03630061  RH  016%=      5-min Rain = 0
KSM2 292107Z 23015KT 36/07 A2977 RMK A01 T03610068  RH  017%=      5-min Rain = 0
KSM2 292108Z 23017G22KT 36/07 A2977 RMK A01 T03630073  RH  017%=      5-min Rain = 0
KSM2 292109Z 22020KT 36/08 A2977 RMK A01 T03640077  RH  017%=      5-min Rain = 0
KSM2 292110Z 24018KT 36/07 A2977 RMK A01 T03620072  RH  017%=      5-min Rain = 0
KSM2 292111Z 23015KT 36/07 A2977 RMK A01 T03620071  RH  017%=      5-min Rain = 0
KSM2 292112Z 24015KT 36/07 A2977 RMK A01 T03630073  RH  017%=      5-min Rain = 0
KSM2 292113Z 22016KT 37/07 A2977 RMK A01 T03660074  RH  017%=      5-min Rain = 0
KSM2 292114Z 21016KT 36/08 A2977 RMK A01 T03640076  RH  017%=      5-min Rain = 0
KSM2 292115Z 22016KT 36/08 A2977 RMK A01 T03630079  RH  018%=      5-min Rain = 0
KSM2 292116Z 23014KT 36/08 A2977 RMK A01 T03630075  RH  017%=      5-min Rain = 0
KSM2 292117Z 23010KT 36/08 A2977 RMK A01 T03610075  RH  017%=      5-min Rain = 0
KSM2 292118Z 21013KT 36/08 A2977 RMK A01 T03610075  RH  017%=      5-min Rain = 0
KSM2 292119Z 19016G21KT 36/08 A2976 RMK A01 T03610076  RH  018%=      5-min Rain = 0
KSM2 292120Z 21021G27KT 36/07 A2976 RMK A01 T03640074  RH  017%=      5-min Rain = 0
KSM2 292121Z 22023KT 37/06 A2976 RMK A01 T03650063  RH  016%=      5-min Rain = 0
KSM2 292122Z 22022KT 36/06 A2976 RMK A01 T03620064  RH  016%=      5-min Rain = 0
KSM2 292123Z 22020KT 36/07 A2976 RMK A01 T03610067  RH  016%=      5-min Rain = 0
KSM2 292124Z 22019G24KT 36/07 A2976 RMK A01 T03610066  RH  016%=      5-min Rain = 0
KSM2 292125Z 23017KT 36/07 A2976 RMK A01 T03620066  RH  016%=      5-min Rain = 0
KSM2 292126Z 23018KT 36/07 A2976 RMK A01 T03630067  RH  016%=      5-min Rain = 0
KSM2 292127Z 23013G18KT 36/07 A2977 RMK A01 T03630065  RH  016%=      5-min Rain = 0
KSM2 292128Z 25013KT 36/07 A2976 RMK A01 T03620071  RH  017%=      5-min Rain = 0
KSM2 292129Z 24013KT 36/07 A2976 RMK A01 T03640072  RH  017%=      5-min Rain = 0
KSM2 292130Z 23020G26KT 37/08 A2976 RMK A01 T03660076  RH  017%=      5-min Rain = 0
KSM2 292131Z 22018G23KT 37/08 A2977 RMK A01 T03660082  RH  018%=      5-min Rain = 0
KSM2 292132Z 22019KT 36/07 A2977 RMK A01 T03640074  RH  017%=      5-min Rain = 0
KSM2 292133Z 19015KT 36/07 A2976 RMK A01 T03610071  RH  017%=      5-min Rain = 0
KSM2 292134Z 21013KT 36/08 A2976 RMK A01 T03590075  RH  018%=      5-min Rain = 0
KSM2 292135Z 23011KT 36/08 A2976 RMK A01 T03610077  RH  018%=      5-min Rain = 0
KSM2 292136Z 21012KT 36/08 A2976 RMK A01 T03640079  RH  018%=      5-min Rain = 0
KSM2 292137Z 21017G25KT 37/08 A2976 RMK A01 T03650075  RH  017%=      5-min Rain = 0
KSM2 292138Z 20017KT 36/07 A2976 RMK A01 T03630073  RH  017%=      5-min Rain = 0
KSM2 292139Z 18014G19KT 36/07 A2976 RMK A01 T03620070  RH  017%=      5-min Rain = 0
KSM2 292140Z 20016G21KT 36/07 A2976 RMK A01 T03620073  RH  017%=      5-min Rain = 0
KSM2 292141Z 19019KT 36/07 A2976 RMK A01 T03640073  RH  017%=      5-min Rain = 0
KSM2 292142Z 20020G25KT 36/07 A2976 RMK A01 T03620073  RH  017%=      5-min Rain = 0
KSM2 292143Z 20022KT 36/07 A2976 RMK A01 T03640070  RH  017%=      5-min Rain = 0
KSM2 292144Z 22020KT 36/07 A2976 RMK A01 T03610068  RH  016%=      5-min Rain = 0
KSM2 292145Z 22020G26KT 36/07 A2976 RMK A01 T03610070  RH  017%=      5-min Rain = 0
KSM2 292146Z 22022KT 36/07 A2976 RMK A01 T03620074  RH  017%=      5-min Rain = 0
KSM2 292147Z 22018KT 36/07 A2976 RMK A01 T03630072  RH  017%=      5-min Rain = 0
KSM2 292148Z 20015G20KT 36/08 A2976 RMK A01 T03640081  RH  018%=      5-min Rain = 0
KSM2 292149Z 21014KT 37/08 A2976 RMK A01 T03660075  RH  017%=      5-min Rain = 0
KSM2 292150Z 21016KT 36/07 A2976 RMK A01 T03620072  RH  017%=      5-min Rain = 0
KSM2 292151Z 20019KT 36/07 A2976 RMK A01 T03610072  RH  017%=      5-min Rain = 0
KSM2 292152Z 22018KT 36/07 A2976 RMK A01 T03620072  RH  017%=      5-min Rain = 0
KSM2 292153Z 22014KT 36/07 A2976 RMK A01 T03630073  RH  017%=      5-min Rain = 0
KSM2 292154Z 24014KT 36/07 A2976 RMK A01 T03630070  RH  017%=      5-min Rain = 0
KSM2 292155Z 22016KT 36/07 A2976 RMK A01 T03640074  RH  017%=      5-min Rain = 0
KSM2 292156Z 21017KT 37/07 A2976 RMK A01 T03660073  RH  017%=      5-min Rain = 0
KSM2 292157Z 20020G25KT 37/07 A2976 RMK A01 T03660068  RH  016%=      5-min Rain = 0
KSM2 292158Z 19019G24KT 36/06 A2976 RMK A01 T03630064  RH  016%=      5-min Rain = 0
KSM2 292159Z 19017KT 36/07 A2976 RMK A01 T03620066  RH  016%=      5-min Rain = 0
KSM2 292200Z 20016KT 36/07 A2976 RMK A01 T03630065  RH  016%=      5-min Rain = 0
KSM2 292201Z 21023KT 36/07 A2976 RMK A01 T03630066  RH  016%=      5-min Rain = 0
KSM2 292202Z 22018KT 36/07 A2976 RMK A01 T03600066  RH  016%=      5-min Rain = 0
KSM2 292203Z 21017G22KT 36/07 A2976 RMK A01 T03590073  RH  017%=      5-min Rain = 0
KSM2 292204Z 21016KT 36/07 A2976 RMK A01 T03600070  RH  017%=      5-min Rain = 0
KSM2 292205Z 21014KT 36/07 A2976 RMK A01 T03600072  RH  017%=      5-min Rain = 0
KSM2 292206Z 21014KT 36/07 A2976 RMK A01 T03620072  RH  017%=      5-min Rain = 0
KSM2 292207Z 21018KT 36/07 A2976 RMK A01 T03620070  RH  017%=      5-min Rain = 0
KSM2 292208Z 20017KT 36/07 A2976 RMK A01 T03620069  RH  017%=      5-min Rain = 0
KSM2 292209Z 21017KT 36/07 A2976 RMK A01 T03600071  RH  017%=      5-min Rain = 0
KSM2 292210Z 21017KT 36/07 A2976 RMK A01 T03620069  RH  017%=      5-min Rain = 0
KSM2 292211Z 22015KT 36/07 A2976 RMK A01 T03610071  RH  017%=      5-min Rain = 0
KSM2 292212Z 21016KT 36/07 A2976 RMK A01 T03600070  RH  017%=      5-min Rain = 0
KSM2 292213Z 21017KT 36/07 A2976 RMK A01 T03610074  RH  017%=      5-min Rain = 0
KSM2 292214Z 21017KT 36/07 A2976 RMK A01 T03630072  RH  017%=      5-min Rain = 0
KSM2 292215Z 22015KT 36/07 A2976 RMK A01 T03610070  RH  017%=      5-min Rain = 0
KSM2 292216Z 21015KT 36/07 A2976 RMK A01 T03610072  RH  017%=      5-min Rain = 0
KSM2 292217Z 19016KT 36/07 A2976 RMK A01 T03620070  RH  017%=      5-min Rain = 0
KSM2 292218Z 21017KT 36/07 A2976 RMK A01 T03620072  RH  017%=      5-min Rain = 0
KSM2 292219Z 22018KT 36/07 A2976 RMK A01 T03620069  RH  017%=      5-min Rain = 0
KSM2 292220Z 21012KT 36/07 A2976 RMK A01 T03610072  RH  017%=      5-min Rain = 0
KSM2 292221Z 21013KT 36/07 A2976 RMK A01 T03620074  RH  017%=      5-min Rain = 0
KSM2 292222Z 22019KT 37/07 A2976 RMK A01 T03650074  RH  017%=      5-min Rain = 0
KSM2 292223Z 22016KT 36/07 A2976 RMK A01 T03630065  RH  016%=      5-min Rain = 0
KSM2 292224Z 22016KT 36/07 A2975 RMK A01 T03630070  RH  017%=      5-min Rain = 0
KSM2 292225Z 19017G24KT 37/07 A2975 RMK A01 T03650069  RH  016%=      5-min Rain = 0
KSM2 292226Z 19017G22KT 36/07 A2975 RMK A01 T03640069  RH  016%=      5-min Rain = 0
KSM2 292227Z 21016KT 36/07 A2975 RMK A01 T03640069  RH  016%=      5-min Rain = 0
KSM2 292228Z 21016KT 36/07 A2976 RMK A01 T03640070  RH  017%=      5-min Rain = 0
KSM2 292229Z 20017KT 36/07 A2976 RMK A01 T03630069  RH  016%=      5-min Rain = 0
KSM2 292230Z 19016KT 36/07 A2976 RMK A01 T03620066  RH  016%=      5-min Rain = 0
KSM2 292231Z 19012G17KT 36/07 A2975 RMK A01 T03610068  RH  017%=      5-min Rain = 0
KSM2 292232Z 18014KT 36/07 A2975 RMK A01 T03620067  RH  016%=      5-min Rain = 0
KSM2 292233Z 18015KT 36/07 A2975 RMK A01 T03630065  RH  016%=      5-min Rain = 0
KSM2 292234Z 21021KT 36/07 A2975 RMK A01 T03640067  RH  016%=      5-min Rain = 0
KSM2 292235Z 24020KT 37/07 A2975 RMK A01 T03660065  RH  016%=      5-min Rain = 0
KSM2 292236Z 22016KT 36/06 A2975 RMK A01 T03640062  RH  016%=      5-min Rain = 0
KSM2 292237Z 21015KT 36/07 A2975 RMK A01 T03630066  RH  016%=      5-min Rain = 0
KSM2 292238Z 22016G21KT 36/06 A2975 RMK A01 T03630064  RH  016%=      5-min Rain = 0
KSM2 292239Z 22020G25KT 36/07 A2975 RMK A01 T03640065  RH  016%=      5-min Rain = 0
KSM2 292240Z 21019KT 36/07 A2975 RMK A01 T03640066  RH  016%=      5-min Rain = 0
KSM2 292241Z 22019G26KT 36/07 A2975 RMK A01 T03620068  RH  016%=      5-min Rain = 0
KSM2 292242Z 21022KT 36/07 A2975 RMK A01 T03630065  RH  016%=      5-min Rain = 0
KSM2 292243Z 21021KT 36/07 A2975 RMK A01 T03610066  RH  016%=      5-min Rain = 0
KSM2 292244Z 21019KT 36/07 A2975 RMK A01 T03610065  RH  016%=      5-min Rain = 0
KSM2 292245Z 22020KT 36/07 A2975 RMK A01 T03620069  RH  017%=      5-min Rain = 0
KSM2 292246Z 24019KT 36/06 A2975 RMK A01 T03630063  RH  016%=      5-min Rain = 0
KSM2 292247Z 22016KT 36/06 A2975 RMK A01 T03620063  RH  016%=      5-min Rain = 0
KSM2 292248Z 20015KT 36/07 A2975 RMK A01 T03620068  RH  016%=      5-min Rain = 0
KSM2 292249Z 19016KT 36/07 A2975 RMK A01 T03620068  RH  016%=      5-min Rain = 0
KSM2 292250Z 19013KT 36/07 A2975 RMK A01 T03610068  RH  016%=      5-min Rain = 0
KSM2 292251Z 21015KT 36/07 A2975 RMK A01 T03610068  RH  017%=      5-min Rain = 0
KSM2 292252Z 22015G20KT 36/06 A2975 RMK A01 T03640063  RH  016%=      5-min Rain = 0
KSM2 292253Z 20014KT 37/06 A2975 RMK A01 T03650062  RH  015%=      5-min Rain = 0
KSM2 292254Z 20017KT 36/06 A2975 RMK A01 T03640058  RH  015%=      5-min Rain = 0
KSM2 292255Z 23019G24KT 36/06 A2975 RMK A01 T03630062  RH  016%=      5-min Rain = 0
KSM2 292256Z 23018KT 36/06 A2975 RMK A01 T03640060  RH  015%=      5-min Rain = 0
KSM2 292257Z 24016KT 36/06 A2975 RMK A01 T03640059  RH  015%=      5-min Rain = 0
KSM2 292258Z 22013KT 36/06 A2975 RMK A01 T03640061  RH  016%=      5-min Rain = 0
KSM2 292259Z 23013KT 37/06 A2975 RMK A01 T03650062  RH  016%=      5-min Rain = 0
KSM2 292300Z 21012G23KT 36/07 A2975 RMK A01 T03640067  RH  016%=      5-min Rain = 0
KSM2 292301Z 21018KT 36/06 A2975 RMK A01 T03640063  RH  016%=      5-min Rain = 0
KSM2 292302Z 21017G22KT 36/06 A2975 RMK A01 T03620063  RH  016%=      5-min Rain = 0
KSM2 292303Z 21017KT 36/06 A2975 RMK A01 T03620060  RH  016%=      5-min Rain = 0
KSM2 292304Z 22016KT 36/06 A2975 RMK A01 T03600062  RH  016%=      5-min Rain = 0
KSM2 292305Z 22014KT 36/06 A2975 RMK A01 T03600063  RH  016%=      5-min Rain = 0
KSM2 292306Z 21014KT 36/07 A2975 RMK A01 T03610067  RH  016%=      5-min Rain = 0
KSM2 292307Z 23016G21KT 36/07 A2974 RMK A01 T03620067  RH  016%=      5-min Rain = 0
KSM2 292308Z 22014G19KT 36/07 A2975 RMK A01 T03630069  RH  016%=      5-min Rain = 0
KSM2 292309Z 20016G21KT 37/07 A2974 RMK A01 T03650068  RH  016%=      5-min Rain = 0
KSM2 292310Z 20016KT 36/07 A2975 RMK A01 T03640068  RH  016%=      5-min Rain = 0
KSM2 292311Z 19013KT 36/07 A2974 RMK A01 T03610065  RH  016%=      5-min Rain = 0
KSM2 292312Z 20012KT 36/07 A2974 RMK A01 T03600068  RH  017%=      5-min Rain = 0
KSM2 292313Z 20012KT 36/07 A2974 RMK A01 T03600070  RH  017%=      5-min Rain = 0
KSM2 292314Z 19016KT 36/07 A2974 RMK A01 T03630070  RH  017%=      5-min Rain = 0
KSM2 292315Z 22019KT 36/06 A2974 RMK A01 T03640062  RH  016%=      5-min Rain = 0
KSM2 292316Z 22017G22KT 37/07 A2974 RMK A01 T03650066  RH  016%=      5-min Rain = 0
KSM2 292317Z 23018KT 37/06 A2974 RMK A01 T03650062  RH  015%=      5-min Rain = 0
KSM2 292318Z 23017KT 36/06 A2974 RMK A01 T03640059  RH  015%=      5-min Rain = 0
KSM2 292319Z 24017KT 36/06 A2974 RMK A01 T03610061  RH  016%=      5-min Rain = 0
KSM2 292320Z 24018KT 36/06 A2974 RMK A01 T03630060  RH  016%=      5-min Rain = 0
KSM2 292321Z 25015KT 36/06 A2974 RMK A01 T03630060  RH  015%=      5-min Rain = 0
KSM2 292322Z 25013KT 36/06 A2974 RMK A01 T03620061  RH  016%=      5-min Rain = 0
KSM2 292323Z 24013KT 36/06 A2974 RMK A01 T03630062  RH  016%=      5-min Rain = 0
KSM2 292324Z 24015KT 36/06 A2974 RMK A01 T03630063  RH  016%=      5-min Rain = 0
KSM2 292325Z 23019KT 36/07 A2974 RMK A01 T03630065  RH  016%=      5-min Rain = 0
KSM2 292326Z 23015G21KT 36/06 A2974 RMK A01 T03640063  RH  016%=      5-min Rain = 0
KSM2 292327Z 22014KT 36/06 A2974 RMK A01 T03620062  RH  016%=      5-min Rain = 0
KSM2 292328Z 22016KT 36/07 A2974 RMK A01 T03620065  RH  016%=      5-min Rain = 0
KSM2 292329Z 22013KT 36/06 A2974 RMK A01 T03600064  RH  016%=      5-min Rain = 0
KSM2 292330Z 22014KT 36/07 A2974 RMK A01 T03600067  RH  017%=      5-min Rain = 0
KSM2 292331Z 22015G20KT 36/07 A2974 RMK A01 T03600068  RH  017%=      5-min Rain = 0
KSM2 292332Z 21014KT 36/07 A2974 RMK A01 T03600069  RH  017%=      5-min Rain = 0
KSM2 292333Z 21012KT 36/07 A2974 RMK A01 T03610071  RH  017%=      5-min Rain = 0
KSM2 292334Z 21011G16KT 36/07 A2974 RMK A01 T03610071  RH  017%=      5-min Rain = 0
KSM2 292335Z 21016KT 36/07 A2974 RMK A01 T03610071  RH  017%=      5-min Rain = 0
KSM2 292336Z 22016KT 36/07 A2974 RMK A01 T03610071  RH  017%=      5-min Rain = 0
KSM2 292337Z 21017KT 36/07 A2974 RMK A01 T03610070  RH  017%=      5-min Rain = 0
KSM2 292338Z 21017KT 36/07 A2974 RMK A01 T03610069  RH  017%=      5-min Rain = 0
KSM2 292339Z 21016KT 36/07 A2974 RMK A01 T03610068  RH  017%=      5-min Rain = 0
KSM2 292340Z 22013KT 36/07 A2974 RMK A01 T03600067  RH  017%=      5-min Rain = 0
KSM2 292341Z 22013KT 36/07 A2974 RMK A01 T03590070  RH  017%=      5-min Rain = 0
KSM2 292342Z 22013KT 36/07 A2974 RMK A01 T03600069  RH  017%=      5-min Rain = 0
KSM2 292343Z 21013KT 36/07 A2974 RMK A01 T03600069  RH  017%=      5-min Rain = 0
KSM2 292344Z 22014KT 36/07 A2974 RMK A01 T03600070  RH  017%=      5-min Rain = 0
KSM2 292345Z 22013KT 36/07 A2974 RMK A01 T03610065  RH  016%=      5-min Rain = 0
KSM2 292346Z 23013KT 36/07 A2974 RMK A01 T03610066  RH  016%=      5-min Rain = 0
KSM2 292347Z 23011G16KT 36/07 A2974 RMK A01 T03620065  RH  016%=      5-min Rain = 0
KSM2 292348Z 22013KT 36/06 A2974 RMK A01 T03630061  RH  016%=      5-min Rain = 0
KSM2 292349Z 22013KT 36/06 A2974 RMK A01 T03610058  RH  015%=      5-min Rain = 0
KSM2 292350Z 20014G19KT 36/06 A2974 RMK A01 T03600060  RH  016%=      5-min Rain = 0
KSM2 292351Z 22015KT 36/06 A2974 RMK A01 T03600057  RH  015%=      5-min Rain = 0
KSM2 292352Z 21013KT 36/06 A2974 RMK A01 T03590061  RH  016%=      5-min Rain = 0
KSM2 292353Z 21012KT 36/06 A2974 RMK A01 T03600063  RH  016%=      5-min Rain = 0
KSM2 292354Z 22014KT 36/06 A2974 RMK A01 T03600058  RH  016%=      5-min Rain = 0
KSM2 292355Z 22011KT 36/06 A2974 RMK A01 T03610059  RH  016%=      5-min Rain = 0
KSM2 292356Z 22012KT 36/06 A2974 RMK A01 T03630062  RH  016%=      5-min Rain = 0
KSM2 292357Z 22015KT 36/06 A2974 RMK A01 T03620055  RH  015%=      5-min Rain = 0
KSM2 292358Z 21014KT 36/06 A2974 RMK A01 T03610058  RH  015%=      5-min Rain = 0
KSM2 292359Z 21013KT 36/06 A2974 RMK A01 T03600060  RH  016%=      5-min Rain = 0
KSM2 300000Z 21012KT 36/07 A2974 RMK A01 T03600067  RH  017%=      5-min Rain = 0
KSM2 300001Z 21015G20KT 36/07 A2974 RMK A01 T03620068  RH  016%=      5-min Rain = 0
KSM2 300002Z 22014KT 36/07 A2974 RMK A01 T03620066  RH  016%=      5-min Rain = 0
KSM2 300003Z 22015KT 36/07 A2974 RMK A01 T03610066  RH  016%=      5-min Rain = 0
KSM2 300004Z 22012G17KT 36/07 A2974 RMK A01 T03610068  RH  017%=      5-min Rain = 0
KSM2 300005Z 21014KT 36/07 A2974 RMK A01 T03610069  RH  017%=      5-min Rain = 0
KSM2 300006Z 20014KT 36/07 A2974 RMK A01 T03610067  RH  017%=      5-min Rain = 0
KSM2 300007Z 21016KT 36/07 A2974 RMK A01 T03600065  RH  016%=      5-min Rain = 0
KSM2 300008Z 22014KT 36/06 A2974 RMK A01 T03590064  RH  016%=      5-min Rain = 0
KSM2 300009Z 22010KT 36/07 A2974 RMK A01 T03590068  RH  017%=      5-min Rain = 0
KSM2 300010Z 22010KT 36/07 A2974 RMK A01 T03590071  RH  017%=      5-min Rain = 0
KSM2 300011Z 20015G22KT 36/07 A2974 RMK A01 T03590065  RH  016%=      5-min Rain = 0
KSM2 300012Z 20016KT 36/06 A2974 RMK A01 T03580056  RH  015%=      5-min Rain = 0
KSM2 300013Z 21013KT 36/06 A2974 RMK A01 T03570055  RH  015%=      5-min Rain = 0
KSM2 300014Z 20012KT 36/06 A2973 RMK A01 T03590055  RH  015%=      5-min Rain = 0
KSM2 300015Z 19013G19KT 36/05 A2973 RMK A01 T03590054  RH  015%=      5-min Rain = 0
KSM2 300016Z 21017KT 36/06 A2974 RMK A01 T03600056  RH  015%=      5-min Rain = 0
KSM2 300017Z 21021KT 36/05 A2974 RMK A01 T03600046  RH  014%=      5-min Rain = 0
KSM2 300018Z 21019KT 36/04 A2974 RMK A01 T03600043  RH  014%=      5-min Rain = 0
KSM2 300019Z 22019KT 36/04 A2974 RMK A01 T03590041  RH  014%=      5-min Rain = 0
KSM2 300020Z 22017KT 36/05 A2974 RMK A01 T03580045  RH  014%=      5-min Rain = 0
KSM2 300021Z 23017KT 36/05 A2974 RMK A01 T03580045  RH  014%=      5-min Rain = 0
KSM2 300022Z 23014KT 36/04 A2974 RMK A01 T03590044  RH  014%=      5-min Rain = 0
KSM2 300023Z 23014KT 36/04 A2974 RMK A01 T03590043  RH  014%=      5-min Rain = 0
KSM2 300024Z 24014KT 36/04 A2974 RMK A01 T03600042  RH  014%=      5-min Rain = 0
KSM2 300025Z 23018KT 36/04 A2974 RMK A01 T03600040  RH  014%=      5-min Rain = 0
KSM2 300026Z 22015KT 36/04 A2974 RMK A01 T03590035  RH  013%=      5-min Rain = 0
KSM2 300027Z 22014KT 36/04 A2974 RMK A01 T03590039  RH  014%=      5-min Rain = 0
KSM2 300028Z 22015KT 36/04 A2974 RMK A01 T03580037  RH  014%=      5-min Rain = 0
KSM2 300029Z 24013KT 36/04 A2974 RMK A01 T03580036  RH  013%=      5-min Rain = 0
KSM2 300030Z 23015KT 36/04 A2974 RMK A01 T03590037  RH  014%=      5-min Rain = 0
KSM2 300031Z 23017KT 36/04 A2974 RMK A01 T03590036  RH  013%=      5-min Rain = 0
KSM2 300032Z 23017KT 36/04 A2974 RMK A01 T03590035  RH  013%=      5-min Rain = 0
KSM2 300033Z 22016G21KT 36/04 A2974 RMK A01 T03580035  RH  013%=      5-min Rain = 0
KSM2 300034Z 22015KT 36/04 A2974 RMK A01 T03580036  RH  013%=      5-min Rain = 0
KSM2 300035Z 22012KT 36/04 A2974 RMK A01 T03570038  RH  014%=      5-min Rain = 0
KSM2 300036Z 23015G20KT 36/04 A2974 RMK A01 T03570036  RH  014%=      5-min Rain = 0
KSM2 300037Z 22016KT 36/04 A2974 RMK A01 T03570036  RH  014%=      5-min Rain = 0
KSM2 300038Z 23015KT 36/04 A2974 RMK A01 T03570036  RH  014%=      5-min Rain = 0
KSM2 300039Z 23013KT 36/04 A2974 RMK A01 T03570036  RH  014%=      5-min Rain = 0
KSM2 300040Z 24016KT 36/03 A2974 RMK A01 T03570034  RH  013%=      5-min Rain = 0
KSM2 300041Z 24015KT 36/03 A2974 RMK A01 T03570033  RH  013%=      5-min Rain = 0
KSM2 300042Z 23013KT 36/03 A2974 RMK A01 T03570034  RH  013%=      5-min Rain = 0
KSM2 300043Z 23012KT 36/04 A2974 RMK A01 T03570037  RH  014%=      5-min Rain = 0
KSM2 300044Z 23014KT 36/04 A2974 RMK A01 T03570038  RH  014%=      5-min Rain = 0
KSM2 300045Z 22013KT 36/04 A2974 RMK A01 T03560037  RH  014%=      5-min Rain = 0
KSM2 300046Z 23014KT 36/03 A2974 RMK A01 T03550033  RH  013%=      5-min Rain = 0
KSM2 300047Z 23013KT 36/04 A2974 RMK A01 T03560035  RH  014%=      5-min Rain = 0
KSM2 300048Z 24012KT 36/04 A2974 RMK A01 T03560038  RH  014%=      5-min Rain = 0
KSM2 300049Z 23013KT 36/04 A2974 RMK A01 T03550038  RH  014%=      5-min Rain = 0
KSM2 300050Z 23012KT 36/04 A2974 RMK A01 T03550038  RH  014%=      5-min Rain = 0
KSM2 300051Z 23011KT 35/04 A2974 RMK A01 T03540040  RH  014%=      5-min Rain = 0
KSM2 300052Z 23011KT 35/04 A2974 RMK A01 T03540038  RH  014%=      5-min Rain = 0
KSM2 300053Z 23009KT 35/04 A2974 RMK A01 T03540040  RH  014%=      5-min Rain = 0
KSM2 300054Z 24012KT 36/04 A2974 RMK A01 T03550041  RH  014%=      5-min Rain = 0
KSM2 300055Z 22013KT 35/04 A2974 RMK A01 T03540037  RH  014%=      5-min Rain = 0
KSM2 300056Z 22013KT 35/04 A2974 RMK A01 T03540037  RH  014%=      5-min Rain = 0
KSM2 300057Z 23014KT 35/04 A2974 RMK A01 T03540035  RH  014%=      5-min Rain = 0
KSM2 300058Z 22013KT 35/03 A2974 RMK A01 T03540034  RH  014%=      5-min Rain = 0
KSM2 300059Z 22014KT 35/04 A2974 RMK A01 T03530036  RH  014%=      5-min Rain = 0
KSM2 300100Z 22012KT 35/04 A2974 RMK A01 T03520037  RH  014%=      5-min Rain = 0
KSM2 300101Z 23012KT 35/04 A2974 RMK A01 T03520039  RH  014%=      5-min Rain = 0
KSM2 300102Z 22013KT 35/04 A2975 RMK A01 T03520038  RH  014%=      5-min Rain = 0
KSM2 300103Z 22013KT 35/04 A2974 RMK A01 T03520036  RH  014%=      5-min Rain = 0
KSM2 300104Z 22012KT 35/04 A2974 RMK A01 T03510036  RH  014%=      5-min Rain = 0
KSM2 300105Z 22013KT 35/04 A2974 RMK A01 T03510036  RH  014%=      5-min Rain = 0
KSM2 300106Z 22016KT 35/03 A2974 RMK A01 T03510034  RH  014%=      5-min Rain = 0
KSM2 300107Z 22014KT 35/03 A2974 RMK A01 T03500034  RH  014%=      5-min Rain = 0
KSM2 300108Z 22016KT 35/04 A2974 RMK A01 T03510036  RH  014%=      5-min Rain = 0
KSM2 300109Z 21015KT 35/04 A2974 RMK A01 T03500037  RH  014%=      5-min Rain = 0
KSM2 300110Z 22016KT 35/04 A2975 RMK A01 T03500039  RH  014%=      5-min Rain = 0
KSM2 300111Z 22015KT 35/04 A2974 RMK A01 T03500040  RH  014%=      5-min Rain = 0
KSM2 300112Z 22013KT 35/04 A2975 RMK A01 T03500042  RH  015%=      5-min Rain = 0
KSM2 300113Z 22012KT 35/04 A2975 RMK A01 T03490042  RH  015%=      5-min Rain = 0
KSM2 300114Z 22014KT 35/04 A2975 RMK A01 T03480043  RH  015%=      5-min Rain = 0
KSM2 300115Z 22014KT 35/04 A2975 RMK A01 T03480041  RH  015%=      5-min Rain = 0
KSM2 300116Z 22015KT 35/04 A2975 RMK A01 T03480040  RH  015%=      5-min Rain = 0
KSM2 300117Z 21013KT 35/04 A2975 RMK A01 T03480041  RH  015%=      5-min Rain = 0
KSM2 300118Z 22013KT 35/04 A2975 RMK A01 T03480043  RH  015%=      5-min Rain = 0
KSM2 300119Z 21011KT 35/04 A2975 RMK A01 T03470044  RH  015%=      5-min Rain = 0
KSM2 300120Z 21011KT 35/04 A2975 RMK A01 T03470043  RH  015%=      5-min Rain = 0
KSM2 300121Z 22011KT 35/05 A2975 RMK A01 T03470045  RH  015%=      5-min Rain = 0
KSM2 300122Z 22012KT 35/05 A2975 RMK A01 T03460045  RH  015%=      5-min Rain = 0
KSM2 300123Z 22013KT 35/05 A2975 RMK A01 T03450046  RH  015%=      5-min Rain = 0
KSM2 300124Z 22013KT 35/05 A2975 RMK A01 T03450045  RH  015%=      5-min Rain = 0
KSM2 300125Z 22011KT 35/05 A2975 RMK A01 T03450046  RH  015%=      5-min Rain = 0
KSM2 300126Z 22012KT 35/05 A2975 RMK A01 T03450047  RH  016%=      5-min Rain = 0
KSM2 300127Z 22011KT 34/05 A2975 RMK A01 T03440047  RH  016%=      5-min Rain = 0
KSM2 300128Z 22009KT 34/05 A2975 RMK A01 T03430049  RH  016%=      5-min Rain = 0
KSM2 300129Z 22010KT 34/05 A2975 RMK A01 T03420049  RH  016%=      5-min Rain = 0
KSM2 300130Z 23010KT 34/05 A2975 RMK A01 T03410049  RH  016%=      5-min Rain = 0
KSM2 300131Z 22010KT 34/05 A2975 RMK A01 T03410049  RH  016%=      5-min Rain = 0
KSM2 300132Z 22011KT 34/05 A2975 RMK A01 T03400049  RH  016%=      5-min Rain = 0
KSM2 300133Z 22011KT 34/05 A2975 RMK A01 T03400048  RH  016%=      5-min Rain = 0
KSM2 300134Z 23011KT 34/05 A2975 RMK A01 T03390048  RH  016%=      5-min Rain = 0
KSM2 300135Z 23011KT 34/05 A2975 RMK A01 T03390047  RH  016%=      5-min Rain = 0
KSM2 300136Z 23011KT 34/05 A2975 RMK A01 T03390046  RH  016%=      5-min Rain = 0
KSM2 300137Z 23011KT 34/05 A2975 RMK A01 T03390045  RH  016%=      5-min Rain = 0
KSM2 300138Z 22010KT 34/04 A2975 RMK A01 T03380044  RH  016%=      5-min Rain = 0
KSM2 300139Z 23010KT 34/04 A2975 RMK A01 T03380043  RH  016%=      5-min Rain = 0
KSM2 300140Z 23009KT 34/04 A2975 RMK A01 T03370044  RH  016%=      5-min Rain = 0
KSM2 300141Z 22010KT 34/04 A2975 RMK A01 T03370044  RH  016%=      5-min Rain = 0
KSM2 300142Z 22010KT 34/04 A2975 RMK A01 T03360043  RH  016%=      5-min Rain = 0
KSM2 300143Z 22010KT 34/04 A2975 RMK A01 T03350043  RH  016%=      5-min Rain = 0
KSM2 300144Z 22013KT 33/04 A2975 RMK A01 T03340041  RH  016%=      5-min Rain = 0
KSM2 300145Z 22011KT 34/04 A2975 RMK A01 T03350039  RH  016%=      5-min Rain = 0
KSM2 300146Z 22011KT 34/04 A2975 RMK A01 T03360040  RH  016%=      5-min Rain = 0
KSM2 300147Z 22011KT 34/04 A2975 RMK A01 T03360040  RH  016%=      5-min Rain = 0
KSM2 300148Z 22012KT 34/04 A2975 RMK A01 T03350040  RH  016%=      5-min Rain = 0
KSM2 300149Z 22011KT 34/04 A2975 RMK A01 T03350040  RH  016%=      5-min Rain = 0
KSM2 300150Z 22010KT 33/04 A2975 RMK A01 T03340041  RH  016%=      5-min Rain = 0
KSM2 300151Z 22009KT 33/04 A2975 RMK A01 T03320041  RH  016%=      5-min Rain = 0
KSM2 300152Z 22010KT 33/04 A2975 RMK A01 T03300042  RH  016%=      5-min Rain = 0
KSM2 300153Z 22009KT 33/04 A2975 RMK A01 T03290041  RH  016%=      5-min Rain = 0
KSM2 300154Z 23010KT 33/04 A2975 RMK A01 T03290042  RH  017%=      5-min Rain = 0
KSM2 300155Z 22010KT 33/04 A2975 RMK A01 T03280041  RH  017%=      5-min Rain = 0
KSM2 300156Z 22010KT 33/04 A2975 RMK A01 T03280041  RH  016%=      5-min Rain = 0
KSM2 300157Z 22009KT 33/04 A2975 RMK A01 T03280041  RH  017%=      5-min Rain = 0
KSM2 300158Z 22010KT 33/04 A2975 RMK A01 T03270041  RH  017%=      5-min Rain = 0
KSM2 300159Z 22009KT 33/04 A2975 RMK A01 T03260042  RH  017%=      5-min Rain = 0
KSM2 300200Z 22009KT 33/04 A2975 RMK A01 T03250042  RH  017%=      5-min Rain = 0
KSM2 300201Z 22008KT 33/04 A2975 RMK A01 T03250042  RH  017%=      5-min Rain = 0
KSM2 300202Z 22009KT 32/04 A2975 RMK A01 T03230044  RH  017%=      5-min Rain = 0
KSM2 300203Z 22008KT 32/04 A2975 RMK A01 T03210043  RH  017%=      5-min Rain = 0
KSM2 300204Z 21009KT 32/04 A2975 RMK A01 T03210041  RH  017%=      5-min Rain = 0
KSM2 300205Z 21008KT 32/04 A2975 RMK A01 T03220040  RH  017%=      5-min Rain = 0
KSM2 300206Z 21009KT 32/04 A2975 RMK A01 T03220041  RH  017%=      5-min Rain = 0
KSM2 300207Z 21009KT 32/04 A2976 RMK A01 T03220042  RH  017%=      5-min Rain = 0
KSM2 300208Z 21009KT 32/04 A2976 RMK A01 T03210042  RH  017%=      5-min Rain = 0
KSM2 300209Z 21009KT 32/04 A2976 RMK A01 T03200042  RH  017%=      5-min Rain = 0
KSM2 300210Z 21008KT 32/04 A2976 RMK A01 T03190041  RH  017%=      5-min Rain = 0
KSM2 300211Z 21008KT 32/04 A2976 RMK A01 T03180041  RH  017%=      5-min Rain = 0
KSM2 300212Z 21008KT 32/04 A2976 RMK A01 T03170041  RH  017%=      5-min Rain = 0
KSM2 300213Z 20007KT 32/04 A2976 RMK A01 T03160042  RH  018%=      5-min Rain = 0
KSM2 300214Z 21008KT 32/04 A2976 RMK A01 T03150041  RH  018%=      5-min Rain = 0
KSM2 300215Z 21008KT 32/04 A2976 RMK A01 T03150043  RH  018%=      5-min Rain = 0
KSM2 300216Z 21008KT 31/04 A2976 RMK A01 T03130044  RH  018%=      5-min Rain = 0
KSM2 300217Z 20007KT 31/04 A2976 RMK A01 T03110044  RH  018%=      5-min Rain = 0
KSM2 300218Z 20007KT 31/04 A2976 RMK A01 T03100043  RH  019%=      5-min Rain = 0
KSM2 300219Z 21007KT 31/04 A2976 RMK A01 T03090043  RH  019%=      5-min Rain = 0
KSM2 300220Z 20007KT 31/05 A2976 RMK A01 T03090045  RH  019%=      5-min Rain = 0
KSM2 300221Z 21007KT 31/05 A2976 RMK A01 T03070046  RH  019%=      5-min Rain = 0
KSM2 300222Z 21008KT 31/05 A2976 RMK A01 T03060046  RH  019%=      5-min Rain = 0
KSM2 300223Z 20008KT 31/04 A2976 RMK A01 T03050044  RH  019%=      5-min Rain = 0
KSM2 300224Z 21008KT 31/05 A2976 RMK A01 T03070046  RH  019%=      5-min Rain = 0
KSM2 300225Z 21008KT 31/05 A2976 RMK A01 T03070047  RH  019%=      5-min Rain = 0
KSM2 300226Z 21008KT 31/05 A2976 RMK A01 T03070047  RH  019%=      5-min Rain = 0
KSM2 300227Z 21009KT 31/05 A2976 RMK A01 T03070047  RH  019%=      5-min Rain = 0
KSM2 300228Z 21008KT 31/05 A2976 RMK A01 T03060047  RH  019%=      5-min Rain = 0
KSM2 300229Z 20008KT 31/05 A2976 RMK A01 T03060048  RH  020%=      5-min Rain = 0
KSM2 300230Z 21008KT 31/05 A2976 RMK A01 T03060049  RH  020%=      5-min Rain = 0
KSM2 300231Z 20007KT 31/05 A2976 RMK A01 T03060049  RH  020%=      5-min Rain = 0
KSM2 300232Z 20007KT 30/05 A2976 RMK A01 T03040050  RH  020%=      5-min Rain = 0
KSM2 300233Z 20007KT 30/05 A2976 RMK A01 T03010050  RH  020%=      5-min Rain = 0
KSM2 300234Z 19007KT 30/05 A2976 RMK A01 T03000051  RH  021%=      5-min Rain = 0
KSM2 300235Z 19006KT 30/05 A2976 RMK A01 T02980052  RH  021%=      5-min Rain = 0
KSM2 300236Z 20007KT 30/05 A2976 RMK A01 T02970052  RH  021%=      5-min Rain = 0
KSM2 300237Z 20007KT 30/05 A2976 RMK A01 T02960052  RH  021%=      5-min Rain = 0
KSM2 300238Z 20007KT 30/05 A2976 RMK A01 T02950054  RH  022%=      5-min Rain = 0
KSM2 300239Z 20007KT 29/05 A2976 RMK A01 T02940054  RH  022%=      5-min Rain = 0
KSM2 300240Z 20007KT 29/06 A2976 RMK A01 T02930055  RH  022%=      5-min Rain = 0
KSM2 300241Z 20007KT 29/06 A2977 RMK A01 T02920055  RH  022%=      5-min Rain = 0
KSM2 300242Z 20007KT 29/06 A2977 RMK A01 T02920055  RH  022%=      5-min Rain = 0
KSM2 300243Z 20007KT 29/06 A2977 RMK A01 T02920055  RH  022%=      5-min Rain = 0
KSM2 300244Z 20006KT 29/06 A2977 RMK A01 T02910056  RH  022%=      5-min Rain = 0
KSM2 300245Z 20007KT 29/06 A2977 RMK A01 T02900055  RH  023%=      5-min Rain = 0
KSM2 300246Z 20007KT 29/06 A2977 RMK A01 T02890057  RH  023%=      5-min Rain = 0
KSM2 300247Z 20007KT 29/06 A2977 RMK A01 T02870058  RH  023%=      5-min Rain = 0
KSM2 300248Z 20007KT 29/06 A2977 RMK A01 T02860058  RH  024%=      5-min Rain = 0
KSM2 300249Z 20007KT 28/06 A2977 RMK A01 T02840058  RH  024%=      5-min Rain = 0
KSM2 300250Z 20007KT 28/06 A2977 RMK A01 T02840060  RH  024%=      5-min Rain = 0
KSM2 300251Z 19007KT 28/06 A2977 RMK A01 T02830060  RH  024%=      5-min Rain = 0
KSM2 300252Z 19007KT 28/06 A2977 RMK A01 T02820060  RH  024%=      5-min Rain = 0
KSM2 300253Z 19007KT 28/06 A2977 RMK A01 T02820062  RH  025%=      5-min Rain = 0
KSM2 300254Z 19008KT 28/06 A2977 RMK A01 T02820062  RH  025%=      5-min Rain = 0
KSM2 300255Z 19007KT 28/06 A2977 RMK A01 T02810062  RH  025%=      5-min Rain = 0
KSM2 300256Z 19007KT 28/06 A2977 RMK A01 T02810063  RH  025%=      5-min Rain = 0
KSM2 300257Z 20007KT 28/07 A2977 RMK A01 T02800065  RH  025%=      5-min Rain = 0
KSM2 300258Z 20007KT 28/07 A2977 RMK A01 T02790065  RH  026%=      5-min Rain = 0
KSM2 300259Z 19007KT 28/07 A2977 RMK A01 T02780066  RH  026%=      5-min Rain = 0
KSM2 300300Z 20007KT 28/07 A2977 RMK A01 T02770066  RH  026%=      5-min Rain = 0
KSM2 300301Z 20007KT 28/07 A2977 RMK A01 T02770066  RH  026%=      5-min Rain = 0
KSM2 300302Z 20007KT 28/07 A2977 RMK A01 T02770066  RH  026%=      5-min Rain = 0
KSM2 300303Z 20007KT 28/07 A2977 RMK A01 T02770066  RH  026%=      5-min Rain = 0
KSM2 300304Z 20007KT 28/07 A2977 RMK A01 T02780066  RH  026%=      5-min Rain = 0
KSM2 300305Z 21007KT 28/07 A2977 RMK A01 T02790066  RH  026%=      5-min Rain = 0
KSM2 300306Z 21008KT 28/07 A2977 RMK A01 T02800066  RH  026%=      5-min Rain = 0
KSM2 300307Z 20008KT 28/07 A2977 RMK A01 T02820065  RH  025%=      5-min Rain = 0
KSM2 300308Z 21009KT 28/06 A2977 RMK A01 T02830064  RH  025%=      5-min Rain = 0
KSM2 300309Z 21008KT 29/06 A2977 RMK A01 T02850062  RH  024%=      5-min Rain = 0
KSM2 300310Z 21009KT 29/06 A2977 RMK A01 T02870061  RH  024%=      5-min Rain = 0
KSM2 300311Z 21009KT 29/06 A2977 RMK A01 T02880061  RH  024%=      5-min Rain = 0
KSM2 300312Z 21009KT 29/06 A2977 RMK A01 T02890061  RH  024%=      5-min Rain = 0
KSM2 300313Z 21008KT 29/06 A2977 RMK A01 T02890062  RH  024%=      5-min Rain = 0
KSM2 300314Z 20008KT 29/06 A2977 RMK A01 T02880063  RH  024%=      5-min Rain = 0
KSM2 300315Z 19008KT 29/06 A2977 RMK A01 T02850064  RH  025%=      5-min Rain = 0
KSM2 300316Z 18007KT 28/07 A2978 RMK A01 T02820065  RH  025%=      5-min Rain = 0
KSM2 300317Z 18008KT 28/07 A2978 RMK A01 T02800065  RH  026%=      5-min Rain = 0
KSM2 300318Z 19007KT 28/07 A2978 RMK A01 T02780067  RH  026%=      5-min Rain = 0
KSM2 300319Z 19008KT 28/07 A2978 RMK A01 T02770068  RH  027%=      5-min Rain = 0
KSM2 300320Z 19008KT 28/07 A2978 RMK A01 T02750069  RH  027%=      5-min Rain = 0
KSM2 300321Z 20009KT 27/07 A2978 RMK A01 T02740068  RH  027%=      5-min Rain = 0
KSM2 300322Z 19009KT 28/07 A2978 RMK A01 T02760068  RH  027%=      5-min Rain = 0
KSM2 300323Z 19009KT 28/07 A2978 RMK A01 T02790067  RH  026%=      5-min Rain = 0
KSM2 300324Z 19008KT 28/07 A2978 RMK A01 T02810068  RH  026%=      5-min Rain = 0
KSM2 300325Z 19008KT 28/07 A2978 RMK A01 T02800069  RH  026%=      5-min Rain = 0
KSM2 300326Z 19008KT 28/07 A2978 RMK A01 T02770069  RH  027%=      5-min Rain = 0
KSM2 300327Z 19008KT 28/07 A2978 RMK A01 T02750070  RH  027%=      5-min Rain = 0
KSM2 300328Z 19008KT 27/07 A2978 RMK A01 T02740070  RH  027%=      5-min Rain = 0
KSM2 300329Z 19007KT 27/07 A2978 RMK A01 T02730070  RH  028%=      5-min Rain = 0
KSM2 300330Z 19008KT 27/07 A2978 RMK A01 T02710070  RH  028%=      5-min Rain = 0
KSM2 300331Z 19008KT 27/07 A2978 RMK A01 T02710071  RH  028%=      5-min Rain = 0
KSM2 300332Z 19008KT 27/07 A2978 RMK A01 T02700071  RH  028%=      5-min Rain = 0
KSM2 300333Z 19007KT 27/07 A2978 RMK A01 T02690072  RH  029%=      5-min Rain = 0
KSM2 300334Z 20008KT 27/07 A2978 RMK A01 T02680072  RH  029%=      5-min Rain = 0
KSM2 300335Z 20007KT 27/07 A2978 RMK A01 T02670071  RH  029%=      5-min Rain = 0
KSM2 300336Z 20006KT 27/07 A2978 RMK A01 T02670072  RH  029%=      5-min Rain = 0
KSM2 300337Z 19007KT 27/07 A2978 RMK A01 T02670071  RH  029%=      5-min Rain = 0
KSM2 300338Z 20008KT 27/07 A2978 RMK A01 T02670071  RH  029%=      5-min Rain = 0
KSM2 300339Z 20009KT 27/07 A2978 RMK A01 T02680070  RH  028%=      5-min Rain = 0
KSM2 300340Z 20009KT 27/07 A2978 RMK A01 T02700070  RH  028%=      5-min Rain = 0
KSM2 300341Z 20009KT 27/07 A2978 RMK A01 T02710069  RH  028%=      5-min Rain = 0
KSM2 300342Z 20009KT 27/07 A2978 RMK A01 T02720067  RH  027%=      5-min Rain = 0
KSM2 300343Z 20008KT 27/07 A2978 RMK A01 T02740067  RH  027%=      5-min Rain = 0
KSM2 300344Z 20009KT 27/07 A2978 RMK A01 T02740067  RH  027%=      5-min Rain = 0
KSM2 300345Z 20009KT 28/07 A2978 RMK A01 T02750066  RH  027%=      5-min Rain = 0
KSM2 300346Z 20009KT 28/07 A2978 RMK A01 T02750066  RH  026%=      5-min Rain = 0
KSM2 300347Z 20009KT 28/07 A2978 RMK A01 T02750065  RH  026%=      5-min Rain = 0
KSM2 300348Z 20009KT 28/07 A2979 RMK A01 T02760065  RH  026%=      5-min Rain = 0
KSM2 300349Z 20010KT 28/06 A2979 RMK A01 T02760064  RH  026%=      5-min Rain = 0
KSM2 300350Z 21010KT 28/06 A2979 RMK A01 T02770062  RH  026%=      5-min Rain = 0
KSM2 300351Z 20010KT 28/06 A2979 RMK A01 T02790063  RH  025%=      5-min Rain = 0
KSM2 300352Z 20009KT 28/06 A2979 RMK A01 T02790062  RH  025%=      5-min Rain = 0
KSM2 300353Z 20010KT 28/06 A2979 RMK A01 T02800062  RH  025%=      5-min Rain = 0
KSM2 300354Z 21010KT 28/06 A2979 RMK A01 T02800061  RH  025%=      5-min Rain = 0
KSM2 300355Z 20010KT 28/06 A2979 RMK A01 T02800060  RH  025%=      5-min Rain = 0
KSM2 300356Z 20011KT 28/06 A2979 RMK A01 T02810061  RH  025%=      5-min Rain = 0
KSM2 300357Z 20011KT 28/06 A2979 RMK A01 T02810060  RH  025%=      5-min Rain = 0
KSM2 300358Z 21010KT 28/06 A2979 RMK A01 T02810059  RH  024%=      5-min Rain = 0
KSM2 300359Z 20011KT 28/06 A2979 RMK A01 T02820058  RH  024%=      5-min Rain = 0
KSM2 300400Z 21011KT 28/06 A2979 RMK A01 T02820057  RH  024%=      5-min Rain = 0
KSM2 300401Z 21011KT 28/06 A2979 RMK A01 T02840057  RH  024%=      5-min Rain = 0
KSM2 300402Z 20011KT 28/06 A2979 RMK A01 T02840056  RH  024%=      5-min Rain = 0
KSM2 300403Z 21011KT 28/06 A2979 RMK A01 T02840057  RH  024%=      5-min Rain = 0
KSM2 300404Z 20011KT 28/06 A2979 RMK A01 T02840056  RH  024%=      5-min Rain = 0
KSM2 300405Z 21010KT 28/06 A2979 RMK A01 T02830056  RH  024%=      5-min Rain = 0
KSM2 300406Z 20010KT 28/06 A2979 RMK A01 T02830057  RH  024%=      5-min Rain = 0
KSM2 300407Z 20009KT 28/06 A298 RMK A01 T02820057  RH  024%=      5-min Rain = 0
KSM2 300408Z 20010KT 28/06 A298 RMK A01 T02810057  RH  024%=      5-min Rain = 0
KSM2 300409Z 20010KT 28/06 A298 RMK A01 T02800057  RH  024%=      5-min Rain = 0
KSM2 300410Z 20010KT 28/06 A298 RMK A01 T02800057  RH  024%=      5-min Rain = 0
KSM2 300411Z 20010KT 28/06 A298 RMK A01 T02790057  RH  024%=      5-min Rain = 0
KSM2 300412Z 20009KT 28/06 A298 RMK A01 T02790057  RH  024%=      5-min Rain = 0
KSM2 300413Z 20008KT 28/06 A298 RMK A01 T02790056  RH  024%=      5-min Rain = 0
KSM2 300414Z 20010KT 28/06 A298 RMK A01 T02790056  RH  024%=      5-min Rain = 0
KSM2 300415Z 20010KT 28/06 A298 RMK A01 T02780056  RH  024%=      5-min Rain = 0
KSM2 300416Z 20010KT 28/06 A298 RMK A01 T02770056  RH  024%=      5-min Rain = 0
KSM2 300417Z 20010KT 28/06 A298 RMK A01 T02770056  RH  024%=      5-min Rain = 0
KSM2 300418Z 20010KT 28/06 A298 RMK A01 T02760055  RH  024%=      5-min Rain = 0
KSM2 300419Z 20010KT 28/06 A298 RMK A01 T02760056  RH  025%=      5-min Rain = 0
KSM2 300420Z 20010KT 28/06 A298 RMK A01 T02750056  RH  025%=      5-min Rain = 0
KSM2 300421Z 20010KT 28/06 A298 RMK A01 T02750055  RH  025%=      5-min Rain = 0
KSM2 300422Z 19011KT 28/06 A298 RMK A01 T02750055  RH  025%=      5-min Rain = 0
KSM2 300423Z 20010KT 28/05 A298 RMK A01 T02750054  RH  024%=      5-min Rain = 0
KSM2 300424Z 20010KT 28/05 A298 RMK A01 T02760054  RH  024%=      5-min Rain = 0
KSM2 300425Z 20009KT 28/06 A298 RMK A01 T02760055  RH  024%=      5-min Rain = 0
KSM2 300426Z 20010KT 28/05 A298 RMK A01 T02760054  RH  024%=      5-min Rain = 0
KSM2 300427Z 20010KT 28/05 A298 RMK A01 T02760054  RH  024%=      5-min Rain = 0
KSM2 300428Z 20010KT 28/05 A298 RMK A01 T02750054  RH  024%=      5-min Rain = 0
KSM2 300429Z 20010KT 28/05 A2981 RMK A01 T02750054  RH  024%=      5-min Rain = 0
KSM2 300430Z 20010KT 28/05 A2981 RMK A01 T02750054  RH  024%=      5-min Rain = 0
KSM2 300431Z 20010KT 28/05 A2981 RMK A01 T02750053  RH  024%=      5-min Rain = 0
KSM2 300432Z 20010KT 27/05 A2981 RMK A01 T02740053  RH  024%=      5-min Rain = 0
KSM2 300433Z 20011KT 27/05 A2981 RMK A01 T02740052  RH  024%=      5-min Rain = 0
KSM2 300434Z 20010KT 28/05 A2981 RMK A01 T02750053  RH  024%=      5-min Rain = 0
KSM2 300435Z 20010KT 27/05 A2981 RMK A01 T02740054  RH  024%=      5-min Rain = 0
KSM2 300436Z 20011KT 27/05 A2981 RMK A01 T02740053  RH  025%=      5-min Rain = 0
KSM2 300437Z 20011KT 27/05 A2981 RMK A01 T02740053  RH  024%=      5-min Rain = 0
KSM2 300438Z 20010KT 27/05 A2981 RMK A01 T02740053  RH  024%=      5-min Rain = 0
KSM2 300439Z 20010KT 27/05 A2981 RMK A01 T02740054  RH  025%=      5-min Rain = 0
KSM2 300440Z 20010KT 27/05 A2981 RMK A01 T02730053  RH  025%=      5-min Rain = 0
KSM2 300441Z 20010KT 27/05 A2981 RMK A01 T02730053  RH  025%=      5-min Rain = 0
KSM2 300442Z 20010KT 27/05 A2981 RMK A01 T02730052  RH  024%=      5-min Rain = 0
KSM2 300443Z 20010KT 27/05 A2981 RMK A01 T02730053  RH  024%=      5-min Rain = 0
KSM2 300444Z 20010KT 27/05 A2981 RMK A01 T02730052  RH  024%=      5-min Rain = 0
KSM2 300445Z 20011KT 27/05 A2981 RMK A01 T02730053  RH  024%=      5-min Rain = 0
KSM2 300446Z 20011KT 27/05 A2981 RMK A01 T02730052  RH  024%=      5-min Rain = 0
KSM2 300447Z 20011KT 27/05 A2981 RMK A01 T02730052  RH  024%=      5-min Rain = 0
KSM2 300448Z 20010KT 27/05 A2981 RMK A01 T02730052  RH  024%=      5-min Rain = 0
KSM2 300449Z 20010KT 27/05 A2981 RMK A01 T02730053  RH  025%=      5-min Rain = 0
KSM2 300450Z 20009KT 27/05 A2981 RMK A01 T02720052  RH  025%=      5-min Rain = 0
KSM2 300451Z 20010KT 27/05 A2981 RMK A01 T02720053  RH  025%=      5-min Rain = 0
KSM2 300452Z 20009KT 27/05 A2981 RMK A01 T02710053  RH  025%=      5-min Rain = 0
KSM2 300453Z 20009KT 27/05 A2981 RMK A01 T02710052  RH  025%=      5-min Rain = 0
KSM2 300454Z 20010KT 27/05 A2981 RMK A01 T02720051  RH  024%=      5-min Rain = 0
KSM2 300455Z 20010KT 27/05 A2981 RMK A01 T02720051  RH  024%=      5-min Rain = 0
KSM2 300456Z 20009KT 27/05 A2981 RMK A01 T02730052  RH  024%=      5-min Rain = 0
KSM2 300457Z 20010KT 27/05 A2981 RMK A01 T02720052  RH  025%=      5-min Rain = 0
KSM2 300458Z 20009KT 27/05 A2981 RMK A01 T02720052  RH  024%=      5-min Rain = 0
KSM2 300459Z 20010KT 27/05 A2981 RMK A01 T02720051  RH  024%=      5-min Rain = 0

Page generated in 0.1401 seconds.